PWSweather.com
Personal Weather Stations
Station Observations
GENISIM
Arvida, Jonquiere, QC G7S 2M9

ArvidaJonquiere, QC G7S 2M9

Lat: 48.435, Lon: -71.2

Elevation: 94

Station Type: National Geographic 265NC

http://www.genisim.com/weather/index.htm

Latest ConditionsUpdated 9:00:04 PM EST Saturday, Feb 23, 2019
Currently Today's Max Today's Min Today's Average
Temperature 19.2°F-7.1°C 31.5°F-0.3°C 1.4°F-17.0°C 16.8°F-8.4°C
Dew Point 16.0°F-8.9°C 21.7°F-5.7°C -1.9°F-18.8°C 11.4°F-11.4°C
Winds Calm Calm 3.8 mph -6.1 kmh - - 0.3 mph 0.5 kmh
Wind Gusts -- 6.0 mph9.7 kmh - -
Humidity 87% 90% 62% 79%
Pressure 30.60 in1036.2 mb 30.72 in1040.3 mb 30.60 in1036.2 mb -
Hour Temp Dew Point Humidity Winds Wind Gusts Pressure Precip Precip Rate Daily Precip Total
09:00 PM 19.2°F-7.1°C 16.0°F-8.9°C 87% Calm Calm -- 30.60 in1036.2 mb 0.00 in0.0 mm 0.00 in0.0 mm 0.00 in0.0 mm
08:58 PM 19.4°F-7.0°C 16.2°F-8.8°C 87% Calm Calm -- 30.60 in1036.2 mb 0.00 in0.0 mm 0.00 in0.0 mm 0.00 in0.0 mm
08:56 PM 19.4°F-7.0°C 16.2°F-8.8°C 87% Calm Calm -- 30.60 in1036.2 mb 0.00 in0.0 mm 0.00 in0.0 mm 0.00 in0.0 mm
08:54 PM 19.6°F-6.9°C 16.4°F-8.7°C 87% Calm Calm -- 30.60 in1036.2 mb 0.00 in0.0 mm 0.00 in0.0 mm 0.00 in0.0 mm
08:52 PM 19.6°F-6.9°C 16.4°F-8.7°C 87% Calm Calm -- 30.60 in1036.2 mb 0.00 in0.0 mm 0.00 in0.0 mm 0.00 in0.0 mm
08:50 PM 19.6°F-6.9°C 16.4°F-8.7°C 87% Calm Calm -- 30.60 in1036.2 mb 0.00 in0.0 mm 0.00 in0.0 mm 0.00 in0.0 mm
08:48 PM 19.8°F-6.8°C 16.6°F-8.6°C 87% Calm Calm -- 30.60 in1036.2 mb 0.00 in0.0 mm 0.00 in0.0 mm 0.00 in0.0 mm
08:46 PM 19.8°F-6.8°C 16.6°F-8.6°C 87% Calm Calm -- 30.61 in1036.6 mb 0.00 in0.0 mm 0.00 in0.0 mm 0.00 in0.0 mm
08:44 PM 19.9°F-6.7°C 16.7°F-8.5°C 87% Calm Calm -- 30.61 in1036.6 mb 0.00 in0.0 mm 0.00 in0.0 mm 0.00 in0.0 mm
08:42 PM 19.9°F-6.7°C 16.7°F-8.5°C 87% Calm Calm 0.7 mph1.1 kmh 30.61 in1036.6 mb 0.00 in0.0 mm 0.00 in0.0 mm 0.00 in0.0 mm
08:40 PM 19.9°F-6.7°C 16.7°F-8.5°C 87% Calm Calm 0.7 mph1.1 kmh 30.61 in1036.6 mb 0.00 in0.0 mm 0.00 in0.0 mm 0.00 in0.0 mm
08:38 PM 19.9°F-6.7°C 16.7°F-8.5°C 87% Calm Calm 0.7 mph1.1 kmh 30.61 in1036.6 mb 0.00 in0.0 mm 0.00 in0.0 mm 0.00 in0.0 mm
08:36 PM 19.9°F-6.7°C 16.7°F-8.5°C 87% Calm Calm 0.7 mph1.1 kmh 30.61 in1036.6 mb 0.00 in0.0 mm 0.00 in0.0 mm 0.00 in0.0 mm
08:34 PM 19.9°F-6.7°C 16.7°F-8.5°C 87% Calm Calm 0.7 mph1.1 kmh 30.61 in1036.6 mb 0.00 in0.0 mm 0.00 in0.0 mm 0.00 in0.0 mm
08:32 PM 19.9°F-6.7°C 16.7°F-8.5°C 87% Calm Calm -- 30.61 in1036.6 mb 0.00 in0.0 mm 0.00 in0.0 mm 0.00 in0.0 mm
08:30 PM 19.9°F-6.7°C 16.7°F-8.5°C 87% Calm Calm -- 30.61 in1036.6 mb 0.00 in0.0 mm 0.00 in0.0 mm 0.00 in0.0 mm
08:28 PM 19.9°F-6.7°C 16.7°F-8.5°C 87% Calm Calm -- 30.61 in1036.6 mb 0.00 in0.0 mm 0.00 in0.0 mm 0.00 in0.0 mm
08:26 PM 19.9°F-6.7°C 16.7°F-8.5°C 87% Calm Calm -- 30.61 in1036.6 mb 0.00 in0.0 mm 0.00 in0.0 mm 0.00 in0.0 mm
08:24 PM 19.9°F-6.7°C 16.7°F-8.5°C 87% Calm Calm -- 30.61 in1036.6 mb 0.00 in0.0 mm 0.00 in0.0 mm 0.00 in0.0 mm
08:22 PM 19.9°F-6.7°C 16.7°F-8.5°C 87% Calm Calm -- 30.61 in1036.6 mb 0.00 in0.0 mm 0.00 in0.0 mm 0.00 in0.0 mm
08:20 PM 19.9°F-6.7°C 16.7°F-8.5°C 87% Calm Calm -- 30.61 in1036.6 mb 0.00 in0.0 mm 0.00 in0.0 mm 0.00 in0.0 mm
08:18 PM 19.8°F-6.8°C 16.6°F-8.6°C 87% Calm Calm -- 30.61 in1036.6 mb 0.00 in0.0 mm 0.00 in0.0 mm 0.00 in0.0 mm
08:16 PM 19.8°F-6.8°C 16.6°F-8.6°C 87% Calm Calm -- 30.61 in1036.6 mb 0.00 in0.0 mm 0.00 in0.0 mm 0.00 in0.0 mm
08:14 PM 19.8°F-6.8°C 16.6°F-8.6°C 87% Calm Calm -- 30.61 in1036.6 mb 0.00 in0.0 mm 0.00 in0.0 mm 0.00 in0.0 mm
08:12 PM 19.8°F-6.8°C 16.6°F-8.6°C 87% Calm Calm -- 30.61 in1036.6 mb 0.00 in0.0 mm 0.00 in0.0 mm 0.00 in0.0 mm
08:10 PM 19.8°F-6.8°C 16.6°F-8.6°C 87% Calm Calm -- 30.61 in1036.6 mb 0.00 in0.0 mm 0.00 in0.0 mm 0.00 in0.0 mm
08:08 PM 19.6°F-6.9°C 16.1°F-8.8°C 86% Calm Calm -- 30.61 in1036.6 mb 0.00 in0.0 mm 0.00 in0.0 mm 0.00 in0.0 mm
08:06 PM 19.8°F-6.8°C 16.6°F-8.6°C 87% Calm Calm -- 30.61 in1036.6 mb 0.00 in0.0 mm 0.00 in0.0 mm 0.00 in0.0 mm
08:04 PM 19.6°F-6.9°C 16.1°F-8.8°C 86% Calm Calm -- 30.61 in1036.6 mb 0.00 in0.0 mm 0.00 in0.0 mm 0.00 in0.0 mm
08:02 PM 19.6°F-6.9°C 16.1°F-8.8°C 86% Calm Calm -- 30.61 in1036.6 mb 0.00 in0.0 mm 0.00 in0.0 mm 0.00 in0.0 mm
08:00 PM 19.6°F-6.9°C 16.1°F-8.8°C 86% Calm Calm -- 30.61 in1036.6 mb 0.00 in0.0 mm 0.00 in0.0 mm 0.00 in0.0 mm
07:58 PM 19.6°F-6.9°C 16.1°F-8.8°C 86% Calm Calm -- 30.61 in1036.6 mb 0.00 in0.0 mm 0.00 in0.0 mm 0.00 in0.0 mm
07:56 PM 19.8°F-6.8°C 16.3°F-8.7°C 86% Calm Calm -- 30.61 in1036.6 mb 0.00 in0.0 mm 0.00 in0.0 mm 0.00 in0.0 mm
07:54 PM 19.8°F-6.8°C 16.3°F-8.7°C 86% Calm Calm -- 30.61 in1036.6 mb 0.00 in0.0 mm 0.00 in0.0 mm 0.00 in0.0 mm
07:52 PM 19.8°F-6.8°C 16.3°F-8.7°C 86% Calm Calm -- 30.60 in1036.2 mb 0.00 in0.0 mm 0.00 in0.0 mm 0.00 in0.0 mm
07:50 PM 19.8°F-6.8°C 16.3°F-8.7°C 86% Calm Calm -- 30.60 in1036.2 mb 0.00 in0.0 mm 0.00 in0.0 mm 0.00 in0.0 mm
07:48 PM 19.8°F-6.8°C 16.3°F-8.7°C 86% Calm Calm -- 30.60 in1036.2 mb 0.00 in0.0 mm 0.00 in0.0 mm 0.00 in0.0 mm
07:46 PM 19.8°F-6.8°C 16.3°F-8.7°C 86% Calm Calm -- 30.60 in1036.2 mb 0.00 in0.0 mm 0.00 in0.0 mm 0.00 in0.0 mm
07:44 PM 19.8°F-6.8°C 16.3°F-8.7°C 86% Calm Calm -- 30.60 in1036.2 mb 0.00 in0.0 mm 0.00 in0.0 mm 0.00 in0.0 mm
07:42 PM 19.8°F-6.8°C 16.3°F-8.7°C 86% Calm Calm -- 30.60 in1036.2 mb 0.00 in0.0 mm 0.00 in0.0 mm 0.00 in0.0 mm
07:40 PM 19.8°F-6.8°C 16.3°F-8.7°C 86% Calm Calm -- 30.60 in1036.2 mb 0.00 in0.0 mm 0.00 in0.0 mm 0.00 in0.0 mm
07:38 PM 19.6°F-6.9°C 15.8°F-9.0°C 85% Calm Calm -- 30.61 in1036.6 mb 0.00 in0.0 mm 0.00 in0.0 mm 0.00 in0.0 mm
07:36 PM 19.6°F-6.9°C 15.8°F-9.0°C 85% Calm Calm -- 30.60 in1036.2 mb 0.00 in0.0 mm 0.00 in0.0 mm 0.00 in0.0 mm
07:34 PM 19.6°F-6.9°C 15.8°F-9.0°C 85% Calm Calm -- 30.61 in1036.6 mb 0.00 in0.0 mm 0.00 in0.0 mm 0.00 in0.0 mm
07:32 PM 19.6°F-6.9°C 15.8°F-9.0°C 85% Calm Calm -- 30.61 in1036.6 mb 0.00 in0.0 mm 0.00 in0.0 mm 0.00 in0.0 mm
07:30 PM 19.6°F-6.9°C 15.8°F-9.0°C 85% Calm Calm -- 30.60 in1036.2 mb 0.00 in0.0 mm 0.00 in0.0 mm 0.00 in0.0 mm
07:28 PM 19.6°F-6.9°C 15.8°F-9.0°C 85% Calm Calm -- 30.60 in1036.2 mb 0.00 in0.0 mm 0.00 in0.0 mm 0.00 in0.0 mm
07:26 PM 19.6°F-6.9°C 15.6°F-9.1°C 84% Calm Calm -- 30.60 in1036.2 mb 0.00 in0.0 mm 0.00 in0.0 mm 0.00 in0.0 mm
07:24 PM 19.6°F-6.9°C 15.6°F-9.1°C 84% Calm Calm -- 30.61 in1036.6 mb 0.00 in0.0 mm 0.00 in0.0 mm 0.00 in0.0 mm
07:22 PM 19.6°F-6.9°C 15.6°F-9.1°C 84% Calm Calm -- 30.60 in1036.2 mb 0.00 in0.0 mm 0.00 in0.0 mm 0.00 in0.0 mm
07:20 PM 19.6°F-6.9°C 15.6°F-9.1°C 84% Calm Calm -- 30.61 in1036.6 mb 0.00 in0.0 mm 0.00 in0.0 mm 0.00 in0.0 mm
07:18 PM 19.8°F-6.8°C 15.8°F-9.0°C 84% Calm Calm -- 30.61 in1036.6 mb 0.00 in0.0 mm 0.00 in0.0 mm 0.00 in0.0 mm
07:16 PM 19.8°F-6.8°C 15.8°F-9.0°C 84% Calm Calm -- 30.61 in1036.6 mb 0.00 in0.0 mm 0.00 in0.0 mm 0.00 in0.0 mm
07:14 PM 19.8°F-6.8°C 15.8°F-9.0°C 84% Calm Calm -- 30.61 in1036.6 mb 0.00 in0.0 mm 0.00 in0.0 mm 0.00 in0.0 mm
07:12 PM 19.9°F-6.7°C 15.9°F-8.9°C 84% Calm Calm -- 30.61 in1036.6 mb 0.00 in0.0 mm 0.00 in0.0 mm 0.00 in0.0 mm
07:10 PM 20.1°F-6.6°C 16.1°F-8.8°C 84% Calm Calm -- 30.61 in1036.6 mb 0.00 in0.0 mm 0.00 in0.0 mm 0.00 in0.0 mm
07:08 PM 20.1°F-6.6°C 16.1°F-8.8°C 84% Calm Calm -- 30.61 in1036.6 mb 0.00 in0.0 mm 0.00 in0.0 mm 0.00 in0.0 mm
07:06 PM 20.3°F-6.5°C 16.3°F-8.7°C 84% Calm Calm -- 30.61 in1036.6 mb 0.00 in0.0 mm 0.00 in0.0 mm 0.00 in0.0 mm
07:04 PM 20.3°F-6.5°C 16.0°F-8.9°C 83% Calm Calm -- 30.61 in1036.6 mb 0.00 in0.0 mm 0.00 in0.0 mm 0.00 in0.0 mm
07:02 PM 20.3°F-6.5°C 16.0°F-8.9°C 83% Calm Calm -- 30.61 in1036.6 mb 0.00 in0.0 mm 0.00 in0.0 mm 0.00 in0.0 mm
07:00 PM 20.3°F-6.5°C 16.0°F-8.9°C 83% Calm Calm -- 30.61 in1036.6 mb 0.00 in0.0 mm 0.00 in0.0 mm 0.00 in0.0 mm
06:58 PM 20.3°F-6.5°C 16.0°F-8.9°C 83% Calm Calm -- 30.61 in1036.6 mb 0.00 in0.0 mm 0.00 in0.0 mm 0.00 in0.0 mm
06:56 PM 20.3°F-6.5°C 15.7°F-9.1°C 82% Calm Calm -- 30.61 in1036.6 mb 0.00 in0.0 mm 0.00 in0.0 mm 0.00 in0.0 mm
06:54 PM 20.3°F-6.5°C 15.7°F-9.1°C 82% Calm Calm -- 30.61 in1036.6 mb 0.00 in0.0 mm 0.00 in0.0 mm 0.00 in0.0 mm
06:52 PM 20.5°F-6.4°C 15.9°F-8.9°C 82% Calm Calm -- 30.61 in1036.6 mb 0.00 in0.0 mm 0.00 in0.0 mm 0.00 in0.0 mm
06:50 PM 20.5°F-6.4°C 15.9°F-8.9°C 82% Calm Calm -- 30.61 in1036.6 mb 0.00 in0.0 mm 0.00 in0.0 mm 0.00 in0.0 mm
06:48 PM 20.7°F-6.3°C 16.1°F-8.8°C 82% Calm Calm -- 30.62 in1036.9 mb 0.00 in0.0 mm 0.00 in0.0 mm 0.00 in0.0 mm
06:46 PM 20.7°F-6.3°C 16.1°F-8.8°C 82% Calm Calm -- 30.61 in1036.6 mb 0.00 in0.0 mm 0.00 in0.0 mm 0.00 in0.0 mm
06:44 PM 20.8°F-6.2°C 16.0°F-8.9°C 81% Calm Calm -- 30.61 in1036.6 mb 0.00 in0.0 mm 0.00 in0.0 mm 0.00 in0.0 mm
06:42 PM 21.0°F-6.1°C 16.1°F-8.8°C 81% Calm Calm -- 30.61 in1036.6 mb 0.00 in0.0 mm 0.00 in0.0 mm 0.00 in0.0 mm
06:40 PM 21.2°F-6.0°C 16.3°F-8.7°C 81% Calm Calm -- 30.61 in1036.6 mb 0.00 in0.0 mm 0.00 in0.0 mm 0.00 in0.0 mm
06:38 PM 21.4°F-5.9°C 16.5°F-8.6°C 81% Calm Calm -- 30.61 in1036.6 mb 0.00 in0.0 mm 0.00 in0.0 mm 0.00 in0.0 mm
06:36 PM 21.6°F-5.8°C 16.7°F-8.5°C 81% Calm Calm -- 30.62 in1036.9 mb 0.00 in0.0 mm 0.00 in0.0 mm 0.00 in0.0 mm
06:34 PM 21.6°F-5.8°C 16.7°F-8.5°C 81% Calm Calm -- 30.61 in1036.6 mb 0.00 in0.0 mm 0.00 in0.0 mm 0.00 in0.0 mm
06:32 PM 21.7°F-5.7°C 16.9°F-8.4°C 81% Calm Calm -- 30.62 in1036.9 mb 0.00 in0.0 mm 0.00 in0.0 mm 0.00 in0.0 mm
06:30 PM 21.9°F-5.6°C 17.0°F-8.3°C 81% Calm Calm -- 30.61 in1036.6 mb 0.00 in0.0 mm 0.00 in0.0 mm 0.00 in0.0 mm
06:28 PM 21.9°F-5.6°C 17.0°F-8.3°C 81% Calm Calm -- 30.61 in1036.6 mb 0.00 in0.0 mm 0.00 in0.0 mm 0.00 in0.0 mm
06:26 PM 22.1°F-5.5°C 17.2°F-8.2°C 81% Calm Calm -- 30.61 in1036.6 mb 0.00 in0.0 mm 0.00 in0.0 mm 0.00 in0.0 mm
06:24 PM 22.1°F-5.5°C 17.2°F-8.2°C 81% Calm Calm -- 30.61 in1036.6 mb 0.00 in0.0 mm 0.00 in0.0 mm 0.00 in0.0 mm
06:22 PM 22.1°F-5.5°C 17.2°F-8.2°C 81% Calm Calm -- 30.61 in1036.6 mb 0.00 in0.0 mm 0.00 in0.0 mm 0.00 in0.0 mm
06:20 PM 22.3°F-5.4°C 17.4°F-8.1°C 81% Calm Calm -- 30.61 in1036.6 mb 0.00 in0.0 mm 0.00 in0.0 mm 0.00 in0.0 mm
06:18 PM 22.3°F-5.4°C 17.4°F-8.1°C 81% Calm Calm -- 30.61 in1036.6 mb 0.00 in0.0 mm 0.00 in0.0 mm 0.00 in0.0 mm
06:16 PM 22.3°F-5.4°C 17.1°F-8.3°C 80% Calm Calm -- 30.61 in1036.6 mb 0.00 in0.0 mm 0.00 in0.0 mm 0.00 in0.0 mm
06:14 PM 22.5°F-5.3°C 17.3°F-8.2°C 80% Calm Calm -- 30.61 in1036.6 mb 0.00 in0.0 mm 0.00 in0.0 mm 0.00 in0.0 mm
06:12 PM 22.5°F-5.3°C 17.3°F-8.2°C 80% Calm Calm -- 30.61 in1036.6 mb 0.00 in0.0 mm 0.00 in0.0 mm 0.00 in0.0 mm
06:10 PM 22.5°F-5.3°C 17.3°F-8.2°C 80% Calm Calm 0.7 mph1.1 kmh 30.61 in1036.6 mb 0.00 in0.0 mm 0.00 in0.0 mm 0.00 in0.0 mm
06:08 PM 22.6°F-5.2°C 17.4°F-8.1°C 80% Calm Calm 0.7 mph1.1 kmh 30.61 in1036.6 mb 0.00 in0.0 mm 0.00 in0.0 mm 0.00 in0.0 mm
06:06 PM 22.6°F-5.2°C 17.4°F-8.1°C 80% Calm Calm 0.7 mph1.1 kmh 30.60 in1036.2 mb 0.00 in0.0 mm 0.00 in0.0 mm 0.00 in0.0 mm
06:04 PM 22.6°F-5.2°C 17.4°F-8.1°C 80% Calm Calm 0.7 mph1.1 kmh 30.61 in1036.6 mb 0.00 in0.0 mm 0.00 in0.0 mm 0.00 in0.0 mm
06:02 PM 22.6°F-5.2°C 17.4°F-8.1°C 80% Calm Calm 0.7 mph1.1 kmh 30.60 in1036.2 mb 0.00 in0.0 mm 0.00 in0.0 mm 0.00 in0.0 mm
06:00 PM 22.6°F-5.2°C 17.1°F-8.3°C 79% Calm Calm -- 30.60 in1036.2 mb 0.00 in0.0 mm 0.00 in0.0 mm 0.00 in0.0 mm
05:58 PM 22.6°F-5.2°C 17.1°F-8.3°C 79% Calm Calm -- 30.60 in1036.2 mb 0.00 in0.0 mm 0.00 in0.0 mm 0.00 in0.0 mm
05:56 PM 22.6°F-5.2°C 17.1°F-8.3°C 79% Calm Calm -- 30.61 in1036.6 mb 0.00 in0.0 mm 0.00 in0.0 mm 0.00 in0.0 mm
05:54 PM 22.6°F-5.2°C 17.1°F-8.3°C 79% Calm Calm -- 30.61 in1036.6 mb 0.00 in0.0 mm 0.00 in0.0 mm 0.00 in0.0 mm
05:52 PM 22.8°F-5.1°C 17.3°F-8.2°C 79% Calm Calm -- 30.61 in1036.6 mb 0.00 in0.0 mm 0.00 in0.0 mm 0.00 in0.0 mm
05:50 PM 22.8°F-5.1°C 17.3°F-8.2°C 79% Calm Calm -- 30.61 in1036.6 mb 0.00 in0.0 mm 0.00 in0.0 mm 0.00 in0.0 mm
05:48 PM 23.0°F-5.0°C 17.5°F-8.1°C 79% Calm Calm -- 30.61 in1036.6 mb 0.00 in0.0 mm 0.00 in0.0 mm 0.00 in0.0 mm
05:46 PM 23.0°F-5.0°C 17.5°F-8.1°C 79% Calm Calm -- 30.61 in1036.6 mb 0.00 in0.0 mm 0.00 in0.0 mm 0.00 in0.0 mm
05:44 PM 23.2°F-4.9°C 17.4°F-8.1°C 78% Calm Calm -- 30.61 in1036.6 mb 0.00 in0.0 mm 0.00 in0.0 mm 0.00 in0.0 mm
05:42 PM 23.2°F-4.9°C 17.4°F-8.1°C 78% Calm Calm -- 30.61 in1036.6 mb 0.00 in0.0 mm 0.00 in0.0 mm 0.00 in0.0 mm
05:40 PM 23.4°F-4.8°C 17.6°F-8.0°C 78% Calm Calm -- 30.61 in1036.6 mb 0.00 in0.0 mm 0.00 in0.0 mm 0.00 in0.0 mm
05:38 PM 23.4°F-4.8°C 17.6°F-8.0°C 78% Calm Calm -- 30.61 in1036.6 mb 0.00 in0.0 mm 0.00 in0.0 mm 0.00 in0.0 mm
05:36 PM 23.5°F-4.7°C 17.7°F-7.9°C 78% Calm Calm -- 30.61 in1036.6 mb 0.00 in0.0 mm 0.00 in0.0 mm 0.00 in0.0 mm
05:34 PM 23.7°F-4.6°C 17.9°F-7.8°C 78% Calm Calm -- 30.61 in1036.6 mb 0.00 in0.0 mm 0.00 in0.0 mm 0.00 in0.0 mm
05:32 PM 23.7°F-4.6°C 17.9°F-7.8°C 78% Calm Calm -- 30.61 in1036.6 mb 0.00 in0.0 mm 0.00 in0.0 mm 0.00 in0.0 mm
05:30 PM 23.9°F-4.5°C 17.8°F-7.9°C 77% Calm Calm -- 30.61 in1036.6 mb 0.00 in0.0 mm 0.00 in0.0 mm 0.00 in0.0 mm
05:28 PM 24.1°F-4.4°C 18.0°F-7.8°C 77% Calm Calm -- 30.61 in1036.6 mb 0.00 in0.0 mm 0.00 in0.0 mm 0.00 in0.0 mm
05:26 PM 24.3°F-4.3°C 18.1°F-7.7°C 77% Calm Calm -- 30.61 in1036.6 mb 0.00 in0.0 mm 0.00 in0.0 mm 0.00 in0.0 mm
05:24 PM 24.4°F-4.2°C 18.0°F-7.8°C 76% Calm Calm -- 30.61 in1036.6 mb 0.00 in0.0 mm 0.00 in0.0 mm 0.00 in0.0 mm
05:22 PM 24.4°F-4.2°C 18.0°F-7.8°C 76% Calm Calm -- 30.61 in1036.6 mb 0.00 in0.0 mm 0.00 in0.0 mm 0.00 in0.0 mm
05:20 PM 24.8°F-4.0°C 18.3°F-7.6°C 76% Calm Calm -- 30.61 in1036.6 mb 0.00 in0.0 mm 0.00 in0.0 mm 0.00 in0.0 mm
05:18 PM 24.8°F-4.0°C 18.3°F-7.6°C 76% Calm Calm -- 30.61 in1036.6 mb 0.00 in0.0 mm 0.00 in0.0 mm 0.00 in0.0 mm
05:16 PM 25.2°F-3.8°C 18.7°F-7.4°C 76% Calm Calm -- 30.61 in1036.6 mb 0.00 in0.0 mm 0.00 in0.0 mm 0.00 in0.0 mm
05:14 PM 25.2°F-3.8°C 18.7°F-7.4°C 76% Calm Calm -- 30.61 in1036.6 mb 0.00 in0.0 mm 0.00 in0.0 mm 0.00 in0.0 mm
05:12 PM 25.5°F-3.6°C 19.0°F-7.2°C 76% Calm Calm -- 30.61 in1036.6 mb 0.00 in0.0 mm 0.00 in0.0 mm 0.00 in0.0 mm
05:10 PM 25.5°F-3.6°C 19.0°F-7.2°C 76% Calm Calm -- 30.61 in1036.6 mb 0.00 in0.0 mm 0.00 in0.0 mm 0.00 in0.0 mm
05:08 PM 25.9°F-3.4°C 19.1°F-7.2°C 75% Calm Calm -- 30.61 in1036.6 mb 0.00 in0.0 mm 0.00 in0.0 mm 0.00 in0.0 mm
05:06 PM 25.9°F-3.4°C 19.1°F-7.2°C 75% Calm Calm -- 30.61 in1036.6 mb 0.00 in0.0 mm 0.00 in0.0 mm 0.00 in0.0 mm
05:04 PM 26.2°F-3.2°C 19.4°F-7.0°C 75% Calm Calm -- 30.61 in1036.6 mb 0.00 in0.0 mm 0.00 in0.0 mm 0.00 in0.0 mm
05:02 PM 26.4°F-3.1°C 19.6°F-6.9°C 75% Calm Calm -- 30.61 in1036.6 mb 0.00 in0.0 mm 0.00 in0.0 mm 0.00 in0.0 mm
05:00 PM 26.8°F-2.9°C 20.0°F-6.7°C 75% Calm Calm 0.7 mph1.1 kmh 30.61 in1036.6 mb 0.00 in0.0 mm 0.00 in0.0 mm 0.00 in0.0 mm
04:58 PM 26.8°F-2.9°C 20.0°F-6.7°C 75% Calm Calm 1.6 mph2.6 kmh 30.61 in1036.6 mb 0.00 in0.0 mm 0.00 in0.0 mm 0.00 in0.0 mm
04:56 PM 27.0°F-2.8°C 20.1°F-6.6°C 75% Calm Calm 1.6 mph2.6 kmh 30.61 in1036.6 mb 0.00 in0.0 mm 0.00 in0.0 mm 0.00 in0.0 mm
04:54 PM 27.0°F-2.8°C 19.8°F-6.8°C 74% Calm Calm 1.6 mph2.6 kmh 30.61 in1036.6 mb 0.00 in0.0 mm 0.00 in0.0 mm 0.00 in0.0 mm
04:52 PM 27.1°F-2.7°C 20.0°F-6.7°C 74% Calm Calm 1.6 mph2.6 kmh 30.61 in1036.6 mb 0.00 in0.0 mm 0.00 in0.0 mm 0.00 in0.0 mm
04:50 PM 27.1°F-2.7°C 20.0°F-6.7°C 74% Calm Calm 1.6 mph2.6 kmh 30.61 in1036.6 mb 0.00 in0.0 mm 0.00 in0.0 mm 0.00 in0.0 mm
04:48 PM 27.3°F-2.6°C 20.2°F-6.6°C 74% Calm Calm -- 30.61 in1036.6 mb 0.00 in0.0 mm 0.00 in0.0 mm 0.00 in0.0 mm
04:46 PM 27.3°F-2.6°C 20.2°F-6.6°C 74% Calm Calm 0.7 mph1.1 kmh 30.61 in1036.6 mb 0.00 in0.0 mm 0.00 in0.0 mm 0.00 in0.0 mm
04:44 PM 27.5°F-2.5°C 20.3°F-6.5°C 74% Calm Calm 0.7 mph1.1 kmh 30.61 in1036.6 mb 0.00 in0.0 mm 0.00 in0.0 mm 0.00 in0.0 mm
04:42 PM 27.5°F-2.5°C 20.3°F-6.5°C 74% Calm Calm 0.7 mph1.1 kmh 30.61 in1036.6 mb 0.00 in0.0 mm 0.00 in0.0 mm 0.00 in0.0 mm
04:40 PM 27.7°F-2.4°C 20.5°F-6.4°C 74% Calm Calm 0.7 mph1.1 kmh 30.61 in1036.6 mb 0.00 in0.0 mm 0.00 in0.0 mm 0.00 in0.0 mm
04:38 PM 27.7°F-2.4°C 20.5°F-6.4°C 74% Calm Calm 0.7 mph1.1 kmh 30.61 in1036.6 mb 0.00 in0.0 mm 0.00 in0.0 mm 0.00 in0.0 mm
04:36 PM 27.9°F-2.3°C 20.7°F-6.3°C 74% Calm Calm 1.6 mph2.6 kmh 30.61 in1036.6 mb 0.00 in0.0 mm 0.00 in0.0 mm 0.00 in0.0 mm
04:34 PM 28.0°F-2.2°C 20.9°F-6.2°C 74% Calm Calm 1.6 mph2.6 kmh 30.61 in1036.6 mb 0.00 in0.0 mm 0.00 in0.0 mm 0.00 in0.0 mm
04:32 PM 28.2°F-2.1°C 21.0°F-6.1°C 74% Calm Calm 1.6 mph2.6 kmh 30.61 in1036.6 mb 0.00 in0.0 mm 0.00 in0.0 mm 0.00 in0.0 mm
04:30 PM 28.4°F-2.0°C 21.2°F-6.0°C 74% Calm Calm 1.6 mph2.6 kmh 30.61 in1036.6 mb 0.00 in0.0 mm 0.00 in0.0 mm 0.00 in0.0 mm
04:28 PM 28.4°F-2.0°C 21.2°F-6.0°C 74% Calm Calm 1.6 mph2.6 kmh 30.62 in1036.9 mb 0.00 in0.0 mm 0.00 in0.0 mm 0.00 in0.0 mm
04:26 PM 28.6°F-1.9°C 21.4°F-5.9°C 74% Calm Calm 1.6 mph2.6 kmh 30.61 in1036.6 mb 0.00 in0.0 mm 0.00 in0.0 mm 0.00 in0.0 mm
04:24 PM 28.6°F-1.9°C 21.4°F-5.9°C 74% Calm Calm 0.7 mph1.1 kmh 30.62 in1036.9 mb 0.00 in0.0 mm 0.00 in0.0 mm 0.00 in0.0 mm
04:22 PM 28.6°F-1.9°C 21.4°F-5.9°C 74% Calm Calm 0.7 mph1.1 kmh 30.61 in1036.6 mb 0.00 in0.0 mm 0.00 in0.0 mm 0.00 in0.0 mm
04:20 PM 28.8°F-1.8°C 21.5°F-5.8°C 74% Calm Calm -- 30.61 in1036.6 mb 0.00 in0.0 mm 0.00 in0.0 mm 0.00 in0.0 mm
04:18 PM 28.9°F-1.7°C 21.7°F-5.7°C 74% Calm Calm -- 30.61 in1036.6 mb 0.00 in0.0 mm 0.00 in0.0 mm 0.00 in0.0 mm
04:16 PM 28.9°F-1.7°C 21.7°F-5.7°C 74% Calm Calm -- 30.62 in1036.9 mb 0.00 in0.0 mm 0.00 in0.0 mm 0.00 in0.0 mm
04:14 PM 28.9°F-1.7°C 21.7°F-5.7°C 74% Calm Calm -- 30.62 in1036.9 mb 0.00 in0.0 mm 0.00 in0.0 mm 0.00 in0.0 mm
04:12 PM 28.9°F-1.7°C 21.7°F-5.7°C 74% Calm Calm -- 30.62 in1036.9 mb 0.00 in0.0 mm 0.00 in0.0 mm 0.00 in0.0 mm
04:10 PM 28.9°F-1.7°C 21.7°F-5.7°C 74% Calm Calm 0.7 mph1.1 kmh 30.61 in1036.6 mb 0.00 in0.0 mm 0.00 in0.0 mm 0.00 in0.0 mm
04:08 PM 28.8°F-1.8°C 21.5°F-5.8°C 74% Calm Calm 0.7 mph1.1 kmh 30.62 in1036.9 mb 0.00 in0.0 mm 0.00 in0.0 mm 0.00 in0.0 mm
04:06 PM 28.8°F-1.8°C 21.5°F-5.8°C 74% Calm Calm 0.7 mph1.1 kmh 30.62 in1036.9 mb 0.00 in0.0 mm 0.00 in0.0 mm 0.00 in0.0 mm
04:04 PM 28.8°F-1.8°C 21.5°F-5.8°C 74% Calm Calm 0.7 mph1.1 kmh 30.61 in1036.6 mb 0.00 in0.0 mm 0.00 in0.0 mm 0.00 in0.0 mm
04:02 PM 28.9°F-1.7°C 21.7°F-5.7°C 74% Calm Calm 1.6 mph2.6 kmh 30.61 in1036.6 mb 0.00 in0.0 mm 0.00 in0.0 mm 0.00 in0.0 mm
04:00 PM 28.8°F-1.8°C 21.5°F-5.8°C 74% Calm Calm 1.6 mph2.6 kmh 30.61 in1036.6 mb 0.00 in0.0 mm 0.00 in0.0 mm 0.00 in0.0 mm
03:58 PM 28.6°F-1.9°C 21.4°F-5.9°C 74% Calm Calm 2.2 mph3.5 kmh 30.61 in1036.6 mb 0.00 in0.0 mm 0.00 in0.0 mm 0.00 in0.0 mm
03:56 PM 28.4°F-2.0°C 21.2°F-6.0°C 74% Calm Calm 2.2 mph3.5 kmh 30.61 in1036.6 mb 0.00 in0.0 mm 0.00 in0.0 mm 0.00 in0.0 mm
03:54 PM 28.4°F-2.0°C 21.2°F-6.0°C 74% Calm Calm 2.2 mph3.5 kmh 30.61 in1036.6 mb 0.00 in0.0 mm 0.00 in0.0 mm 0.00 in0.0 mm
03:52 PM 28.4°F-2.0°C 21.2°F-6.0°C 74% 0.7 mph E1.1 kmh E 2.2 mph3.5 kmh 30.61 in1036.6 mb 0.00 in0.0 mm 0.00 in0.0 mm 0.00 in0.0 mm
03:50 PM 28.4°F-2.0°C 21.2°F-6.0°C 74% 0.7 mph E1.1 kmh E 2.2 mph3.5 kmh 30.61 in1036.6 mb 0.00 in0.0 mm 0.00 in0.0 mm 0.00 in0.0 mm
03:48 PM 28.4°F-2.0°C 21.2°F-6.0°C 74% Calm Calm 1.6 mph2.6 kmh 30.61 in1036.6 mb 0.00 in0.0 mm 0.00 in0.0 mm 0.00 in0.0 mm
03:46 PM 28.4°F-2.0°C 20.9°F-6.2°C 73% Calm Calm 1.6 mph2.6 kmh 30.61 in1036.6 mb 0.00 in0.0 mm 0.00 in0.0 mm 0.00 in0.0 mm
03:44 PM 28.6°F-1.9°C 21.4°F-5.9°C 74% Calm Calm 1.6 mph2.6 kmh 30.61 in1036.6 mb 0.00 in0.0 mm 0.00 in0.0 mm 0.00 in0.0 mm
03:42 PM 28.6°F-1.9°C 21.4°F-5.9°C 74% Calm Calm 0.7 mph1.1 kmh 30.62 in1036.9 mb 0.00 in0.0 mm 0.00 in0.0 mm 0.00 in0.0 mm
03:40 PM 28.6°F-1.9°C 21.4°F-5.9°C 74% Calm Calm 2.2 mph3.5 kmh 30.62 in1036.9 mb 0.00 in0.0 mm 0.00 in0.0 mm 0.00 in0.0 mm
03:38 PM 28.8°F-1.8°C 21.5°F-5.8°C 74% Calm Calm 2.2 mph3.5 kmh 30.61 in1036.6 mb 0.00 in0.0 mm 0.00 in0.0 mm 0.00 in0.0 mm
03:36 PM 28.8°F-1.8°C 21.5°F-5.8°C 74% Calm Calm 2.2 mph3.5 kmh 30.61 in1036.6 mb 0.00 in0.0 mm 0.00 in0.0 mm 0.00 in0.0 mm
03:34 PM 28.8°F-1.8°C 21.5°F-5.8°C 74% Calm Calm 2.2 mph3.5 kmh 30.61 in1036.6 mb 0.00 in0.0 mm 0.00 in0.0 mm 0.00 in0.0 mm
03:32 PM 28.8°F-1.8°C 21.5°F-5.8°C 74% Calm Calm 2.2 mph3.5 kmh 30.61 in1036.6 mb 0.00 in0.0 mm 0.00 in0.0 mm 0.00 in0.0 mm
03:30 PM 28.8°F-1.8°C 21.5°F-5.8°C 74% 0.7 mph NE1.1 kmh NE 2.2 mph3.5 kmh 30.61 in1036.6 mb 0.00 in0.0 mm 0.00 in0.0 mm 0.00 in0.0 mm
03:28 PM 28.6°F-1.9°C 21.4°F-5.9°C 74% Calm Calm 2.2 mph3.5 kmh 30.61 in1036.6 mb 0.00 in0.0 mm 0.00 in0.0 mm 0.00 in0.0 mm
03:26 PM 28.6°F-1.9°C 21.4°F-5.9°C 74% Calm Calm 2.2 mph3.5 kmh 30.61 in1036.6 mb 0.00 in0.0 mm 0.00 in0.0 mm 0.00 in0.0 mm
03:24 PM 28.6°F-1.9°C 21.4°F-5.9°C 74% 0.7 mph ENE1.1 kmh ENE 2.2 mph3.5 kmh 30.60 in1036.2 mb 0.00 in0.0 mm 0.00 in0.0 mm 0.00 in0.0 mm
03:22 PM 28.4°F-2.0°C 21.2°F-6.0°C 74% Calm Calm 2.2 mph3.5 kmh 30.61 in1036.6 mb 0.00 in0.0 mm 0.00 in0.0 mm 0.00 in0.0 mm
03:20 PM 28.4°F-2.0°C 21.2°F-6.0°C 74% Calm Calm 3.8 mph6.1 kmh 30.60 in1036.2 mb 0.00 in0.0 mm 0.00 in0.0 mm 0.00 in0.0 mm
03:18 PM 28.4°F-2.0°C 21.2°F-6.0°C 74% 0.7 mph NE1.1 kmh NE 3.8 mph6.1 kmh 30.60 in1036.2 mb 0.00 in0.0 mm 0.00 in0.0 mm 0.00 in0.0 mm
03:16 PM 28.4°F-2.0°C 21.2°F-6.0°C 74% 0.7 mph NE1.1 kmh NE 3.8 mph6.1 kmh 30.61 in1036.6 mb 0.00 in0.0 mm 0.00 in0.0 mm 0.00 in0.0 mm
03:14 PM 28.6°F-1.9°C 21.4°F-5.9°C 74% 1.6 mph NE2.6 kmh NE 3.8 mph6.1 kmh 30.61 in1036.6 mb 0.00 in0.0 mm 0.00 in0.0 mm 0.00 in0.0 mm
03:12 PM 28.4°F-2.0°C 21.2°F-6.0°C 74% 1.6 mph NE2.6 kmh NE 3.8 mph6.1 kmh 30.60 in1036.2 mb 0.00 in0.0 mm 0.00 in0.0 mm 0.00 in0.0 mm
03:10 PM 28.6°F-1.9°C 21.4°F-5.9°C 74% 2.2 mph NE3.5 kmh NE 3.1 mph5.0 kmh 30.61 in1036.6 mb 0.00 in0.0 mm 0.00 in0.0 mm 0.00 in0.0 mm
03:08 PM 28.4°F-2.0°C 21.2°F-6.0°C 74% Calm Calm 3.1 mph5.0 kmh 30.61 in1036.6 mb 0.00 in0.0 mm 0.00 in0.0 mm 0.00 in0.0 mm
03:06 PM 28.4°F-2.0°C 21.2°F-6.0°C 74% Calm Calm 3.1 mph5.0 kmh 30.61 in1036.6 mb 0.00 in0.0 mm 0.00 in0.0 mm 0.00 in0.0 mm
03:04 PM 28.4°F-2.0°C 21.2°F-6.0°C 74% 1.6 mph NE2.6 kmh NE 3.1 mph5.0 kmh 30.60 in1036.2 mb 0.00 in0.0 mm 0.00 in0.0 mm 0.00 in0.0 mm
03:02 PM 28.2°F-2.1°C 21.0°F-6.1°C 74% 0.7 mph NE1.1 kmh NE 3.1 mph5.0 kmh 30.61 in1036.6 mb 0.00 in0.0 mm 0.00 in0.0 mm 0.00 in0.0 mm
03:00 PM 28.0°F-2.2°C 20.9°F-6.2°C 74% 1.6 mph NNE2.6 kmh NNE 3.8 mph6.1 kmh 30.60 in1036.2 mb 0.00 in0.0 mm 0.00 in0.0 mm 0.00 in0.0 mm
02:58 PM 28.0°F-2.2°C 20.9°F-6.2°C 74% 0.7 mph NNE1.1 kmh NNE 3.8 mph6.1 kmh 30.61 in1036.6 mb 0.00 in0.0 mm 0.00 in0.0 mm 0.00 in0.0 mm
02:56 PM 27.9°F-2.3°C 21.0°F-6.1°C 75% Calm Calm 5.4 mph8.7 kmh 30.61 in1036.6 mb 0.00 in0.0 mm 0.00 in0.0 mm 0.00 in0.0 mm
02:54 PM 27.9°F-2.3°C 21.0°F-6.1°C 75% 1.6 mph N2.6 kmh N 5.4 mph8.7 kmh 30.61 in1036.6 mb 0.00 in0.0 mm 0.00 in0.0 mm 0.00 in0.0 mm
02:52 PM 27.9°F-2.3°C 21.0°F-6.1°C 75% 1.6 mph N2.6 kmh N 5.4 mph8.7 kmh 30.61 in1036.6 mb 0.00 in0.0 mm 0.00 in0.0 mm 0.00 in0.0 mm
02:50 PM 27.9°F-2.3°C 21.0°F-6.1°C 75% 2.2 mph NNE3.5 kmh NNE 6.0 mph9.7 kmh 30.60 in1036.2 mb 0.00 in0.0 mm 0.00 in0.0 mm 0.00 in0.0 mm
02:48 PM 27.9°F-2.3°C 20.7°F-6.3°C 74% 1.6 mph NNE2.6 kmh NNE 6.0 mph9.7 kmh 30.61 in1036.6 mb 0.00 in0.0 mm 0.00 in0.0 mm 0.00 in0.0 mm
02:46 PM 28.0°F-2.2°C 20.9°F-6.2°C 74% 2.2 mph NNE3.5 kmh NNE 6.0 mph9.7 kmh 30.61 in1036.6 mb 0.00 in0.0 mm 0.00 in0.0 mm 0.00 in0.0 mm
02:44 PM 28.4°F-2.0°C 20.9°F-6.2°C 73% 2.2 mph NNE3.5 kmh NNE 6.0 mph9.7 kmh 30.61 in1036.6 mb 0.00 in0.0 mm 0.00 in0.0 mm 0.00 in0.0 mm
02:42 PM 28.6°F-1.9°C 20.7°F-6.3°C 72% 2.2 mph NE3.5 kmh NE 6.0 mph9.7 kmh 30.61 in1036.6 mb 0.00 in0.0 mm 0.00 in0.0 mm 0.00 in0.0 mm
02:40 PM 28.9°F-1.7°C 20.7°F-6.3°C 71% 1.6 mph NE2.6 kmh NE 4.5 mph7.2 kmh 30.61 in1036.6 mb 0.00 in0.0 mm 0.00 in0.0 mm 0.00 in0.0 mm
02:38 PM 29.1°F-1.6°C 20.9°F-6.2°C 71% 1.6 mph NE2.6 kmh NE 3.8 mph6.1 kmh 30.61 in1036.6 mb 0.00 in0.0 mm 0.00 in0.0 mm 0.00 in0.0 mm
02:36 PM 29.1°F-1.6°C 20.6°F-6.3°C 70% 1.6 mph NE2.6 kmh NE 4.5 mph7.2 kmh 30.61 in1036.6 mb 0.00 in0.0 mm 0.00 in0.0 mm 0.00 in0.0 mm
02:34 PM 29.1°F-1.6°C 20.6°F-6.3°C 70% 0.7 mph NNE1.1 kmh NNE 4.5 mph7.2 kmh 30.61 in1036.6 mb 0.00 in0.0 mm 0.00 in0.0 mm 0.00 in0.0 mm
02:32 PM 29.3°F-1.5°C 20.4°F-6.4°C 69% 1.6 mph NNE2.6 kmh NNE 4.5 mph7.2 kmh 30.61 in1036.6 mb 0.00 in0.0 mm 0.00 in0.0 mm 0.00 in0.0 mm
02:30 PM 29.7°F-1.3°C 20.8°F-6.2°C 69% 0.7 mph NNE1.1 kmh NNE 4.5 mph7.2 kmh 30.61 in1036.6 mb 0.00 in0.0 mm 0.00 in0.0 mm 0.00 in0.0 mm
02:28 PM 29.8°F-1.2°C 20.9°F-6.2°C 69% 1.6 mph NE2.6 kmh NE 4.5 mph7.2 kmh 30.61 in1036.6 mb 0.00 in0.0 mm 0.00 in0.0 mm 0.00 in0.0 mm
02:26 PM 30.0°F-1.1°C 20.8°F-6.2°C 68% 0.7 mph NE1.1 kmh NE 3.1 mph5.0 kmh 30.61 in1036.6 mb 0.00 in0.0 mm 0.00 in0.0 mm 0.00 in0.0 mm
02:24 PM 30.2°F-1.0°C 20.9°F-6.2°C 68% 0.7 mph E1.1 kmh E 3.1 mph5.0 kmh 30.61 in1036.6 mb 0.00 in0.0 mm 0.00 in0.0 mm 0.00 in0.0 mm
02:22 PM 30.4°F-0.9°C 21.1°F-6.1°C 68% 1.6 mph SE2.6 kmh SE 3.1 mph5.0 kmh 30.61 in1036.6 mb 0.00 in0.0 mm 0.00 in0.0 mm 0.00 in0.0 mm
02:20 PM 30.6°F-0.8°C 20.9°F-6.2°C 67% 1.6 mph SE2.6 kmh SE 3.1 mph5.0 kmh 30.61 in1036.6 mb 0.00 in0.0 mm 0.00 in0.0 mm 0.00 in0.0 mm
02:18 PM 30.4°F-0.9°C 20.8°F-6.2°C 67% Calm Calm 3.8 mph6.1 kmh 30.61 in1036.6 mb 0.00 in0.0 mm 0.00 in0.0 mm 0.00 in0.0 mm
02:16 PM 30.4°F-0.9°C 20.8°F-6.2°C 67% 1.6 mph ENE2.6 kmh ENE 3.8 mph6.1 kmh 30.61 in1036.6 mb 0.00 in0.0 mm 0.00 in0.0 mm 0.00 in0.0 mm
02:14 PM 30.4°F-0.9°C 20.4°F-6.4°C 66% 0.7 mph NE1.1 kmh NE 3.8 mph6.1 kmh 30.61 in1036.6 mb 0.00 in0.0 mm 0.00 in0.0 mm 0.00 in0.0 mm
02:12 PM 30.6°F-0.8°C 20.9°F-6.2°C 67% 0.7 mph NE1.1 kmh NE 3.8 mph6.1 kmh 30.61 in1036.6 mb 0.00 in0.0 mm 0.00 in0.0 mm 0.00 in0.0 mm
02:10 PM 30.4°F-0.9°C 20.4°F-6.4°C 66% 1.6 mph ENE2.6 kmh ENE 3.8 mph6.1 kmh 30.62 in1036.9 mb 0.00 in0.0 mm 0.00 in0.0 mm 0.00 in0.0 mm
02:08 PM 30.0°F-1.1°C 20.1°F-6.6°C 66% 0.7 mph E1.1 kmh E 3.1 mph5.0 kmh 30.61 in1036.6 mb 0.00 in0.0 mm 0.00 in0.0 mm 0.00 in0.0 mm
02:06 PM 29.7°F-1.3°C 19.7°F-6.8°C 66% Calm Calm 3.1 mph5.0 kmh 30.62 in1036.9 mb 0.00 in0.0 mm 0.00 in0.0 mm 0.00 in0.0 mm
02:04 PM 29.5°F-1.4°C 19.9°F-6.7°C 67% 0.7 mph SE1.1 kmh SE 2.2 mph3.5 kmh 30.62 in1036.9 mb 0.00 in0.0 mm 0.00 in0.0 mm 0.00 in0.0 mm
02:02 PM 29.1°F-1.6°C 19.6°F-6.9°C 67% Calm Calm 4.5 mph7.2 kmh 30.62 in1036.9 mb 0.00 in0.0 mm 0.00 in0.0 mm 0.00 in0.0 mm
02:00 PM 28.8°F-1.8°C 19.2°F-7.1°C 67% Calm Calm 4.5 mph7.2 kmh 30.62 in1036.9 mb 0.00 in0.0 mm 0.00 in0.0 mm 0.00 in0.0 mm
01:58 PM 28.8°F-1.8°C 19.2°F-7.1°C 67% Calm Calm 4.5 mph7.2 kmh 30.62 in1036.9 mb 0.00 in0.0 mm 0.00 in0.0 mm 0.00 in0.0 mm
01:56 PM 28.6°F-1.9°C 19.0°F-7.2°C 67% Calm Calm 4.5 mph7.2 kmh 30.62 in1036.9 mb 0.00 in0.0 mm 0.00 in0.0 mm 0.00 in0.0 mm
01:54 PM 28.6°F-1.9°C 19.0°F-7.2°C 67% 1.6 mph NNE2.6 kmh NNE 4.5 mph7.2 kmh 30.62 in1036.9 mb 0.00 in0.0 mm 0.00 in0.0 mm 0.00 in0.0 mm
01:52 PM 28.4°F-2.0°C 18.9°F-7.3°C 67% 0.7 mph NNE1.1 kmh NNE 3.8 mph6.1 kmh 30.62 in1036.9 mb 0.00 in0.0 mm 0.00 in0.0 mm 0.00 in0.0 mm
01:50 PM 28.0°F-2.2°C 18.5°F-7.5°C 67% 0.7 mph NE1.1 kmh NE 3.8 mph6.1 kmh 30.62 in1036.9 mb 0.00 in0.0 mm 0.00 in0.0 mm 0.00 in0.0 mm
01:48 PM 28.0°F-2.2°C 18.5°F-7.5°C 67% 1.6 mph NE2.6 kmh NE 3.8 mph6.1 kmh 30.62 in1036.9 mb 0.00 in0.0 mm 0.00 in0.0 mm 0.00 in0.0 mm
01:46 PM 28.0°F-2.2°C 18.2°F-7.7°C 66% 0.7 mph NE1.1 kmh NE 3.1 mph5.0 kmh 30.63 in1037.3 mb 0.00 in0.0 mm 0.00 in0.0 mm 0.00 in0.0 mm
01:44 PM 27.9°F-2.3°C 18.0°F-7.8°C 66% 1.6 mph NE2.6 kmh NE 3.1 mph5.0 kmh 30.62 in1036.9 mb 0.00 in0.0 mm 0.00 in0.0 mm 0.00 in0.0 mm
01:42 PM 28.0°F-2.2°C 18.2°F-7.7°C 66% 0.7 mph ENE1.1 kmh ENE 3.1 mph5.0 kmh 30.63 in1037.3 mb 0.00 in0.0 mm 0.00 in0.0 mm 0.00 in0.0 mm
01:40 PM 28.0°F-2.2°C 18.2°F-7.7°C 66% 0.7 mph ENE1.1 kmh ENE 3.1 mph5.0 kmh 30.63 in1037.3 mb 0.00 in0.0 mm 0.00 in0.0 mm 0.00 in0.0 mm
01:38 PM 28.2°F-2.1°C 18.4°F-7.6°C 66% 0.7 mph ENE1.1 kmh ENE 3.1 mph5.0 kmh 30.63 in1037.3 mb 0.00 in0.0 mm 0.00 in0.0 mm 0.00 in0.0 mm
01:36 PM 28.4°F-2.0°C 18.2°F-7.7°C 65% 0.7 mph NE1.1 kmh NE 5.4 mph8.7 kmh 30.63 in1037.3 mb 0.00 in0.0 mm 0.00 in0.0 mm 0.00 in0.0 mm
01:34 PM 28.4°F-2.0°C 18.2°F-7.7°C 65% 0.7 mph NE1.1 kmh NE 5.4 mph8.7 kmh 30.63 in1037.3 mb 0.00 in0.0 mm 0.00 in0.0 mm 0.00 in0.0 mm
01:32 PM 28.6°F-1.9°C 18.3°F-7.6°C 65% 0.7 mph NNE1.1 kmh NNE 5.4 mph8.7 kmh 30.63 in1037.3 mb 0.00 in0.0 mm 0.00 in0.0 mm 0.00 in0.0 mm
01:30 PM 28.6°F-1.9°C 18.3°F-7.6°C 65% Calm Calm 5.4 mph8.7 kmh 30.63 in1037.3 mb 0.00 in0.0 mm 0.00 in0.0 mm 0.00 in0.0 mm
01:28 PM 28.6°F-1.9°C 18.3°F-7.6°C 65% 1.6 mph N2.6 kmh N 5.4 mph8.7 kmh 30.63 in1037.3 mb 0.00 in0.0 mm 0.00 in0.0 mm 0.00 in0.0 mm
01:26 PM 28.9°F-1.7°C 18.7°F-7.4°C 65% 3.1 mph N5.0 kmh N 5.4 mph8.7 kmh 30.62 in1036.9 mb 0.00 in0.0 mm 0.00 in0.0 mm 0.00 in0.0 mm
01:24 PM 29.1°F-1.6°C 18.9°F-7.3°C 65% 1.6 mph N2.6 kmh N 4.5 mph7.2 kmh 30.62 in1036.9 mb 0.00 in0.0 mm 0.00 in0.0 mm 0.00 in0.0 mm
01:22 PM 29.1°F-1.6°C 18.9°F-7.3°C 65% Calm Calm 4.5 mph7.2 kmh 30.62 in1036.9 mb 0.00 in0.0 mm 0.00 in0.0 mm 0.00 in0.0 mm
01:20 PM 29.1°F-1.6°C 18.5°F-7.5°C 64% 2.2 mph N3.5 kmh N 4.5 mph7.2 kmh 30.63 in1037.3 mb 0.00 in0.0 mm 0.00 in0.0 mm 0.00 in0.0 mm
01:18 PM 29.1°F-1.6°C 18.9°F-7.3°C 65% 0.7 mph N1.1 kmh N 4.5 mph7.2 kmh 30.62 in1036.9 mb 0.00 in0.0 mm 0.00 in0.0 mm 0.00 in0.0 mm
01:16 PM 29.3°F-1.5°C 18.7°F-7.4°C 64% 0.7 mph N1.1 kmh N 4.5 mph7.2 kmh 30.62 in1036.9 mb 0.00 in0.0 mm 0.00 in0.0 mm 0.00 in0.0 mm
01:14 PM 29.5°F-1.4°C 18.8°F-7.3°C 64% 3.1 mph NE5.0 kmh NE 4.5 mph7.2 kmh 30.62 in1036.9 mb 0.00 in0.0 mm 0.00 in0.0 mm 0.00 in0.0 mm
01:12 PM 29.5°F-1.4°C 18.8°F-7.3°C 64% 0.7 mph NE1.1 kmh NE 3.8 mph6.1 kmh 30.63 in1037.3 mb 0.00 in0.0 mm 0.00 in0.0 mm 0.00 in0.0 mm
01:10 PM 29.8°F-1.2°C 18.8°F-7.3°C 63% 1.6 mph NE2.6 kmh NE 3.8 mph6.1 kmh 30.63 in1037.3 mb 0.00 in0.0 mm 0.00 in0.0 mm 0.00 in0.0 mm
01:08 PM 30.4°F-0.9°C 19.0°F-7.2°C 62% 1.6 mph NE2.6 kmh NE 3.8 mph6.1 kmh 30.63 in1037.3 mb 0.00 in0.0 mm 0.00 in0.0 mm 0.00 in0.0 mm
01:06 PM 30.7°F-0.7°C 19.3°F-7.1°C 62% 1.6 mph NE2.6 kmh NE 3.8 mph6.1 kmh 30.63 in1037.3 mb 0.00 in0.0 mm 0.00 in0.0 mm 0.00 in0.0 mm
01:04 PM 31.5°F-0.3°C 20.3°F-6.5°C 63% 1.6 mph NE2.6 kmh NE 3.8 mph6.1 kmh 30.63 in1037.3 mb 0.00 in0.0 mm 0.00 in0.0 mm 0.00 in0.0 mm
01:02 PM 31.5°F-0.3°C 20.3°F-6.5°C 63% 1.6 mph NE2.6 kmh NE 3.8 mph6.1 kmh 30.63 in1037.3 mb 0.00 in0.0 mm 0.00 in0.0 mm 0.00 in0.0 mm
01:00 PM 31.5°F-0.3°C 20.3°F-6.5°C 63% 1.6 mph NE2.6 kmh NE 3.8 mph6.1 kmh 30.63 in1037.3 mb 0.00 in0.0 mm 0.00 in0.0 mm 0.00 in0.0 mm
12:58 PM 31.5°F-0.3°C 20.3°F-6.5°C 63% 1.6 mph ENE2.6 kmh ENE 3.8 mph6.1 kmh 30.63 in1037.3 mb 0.00 in0.0 mm 0.00 in0.0 mm 0.00 in0.0 mm
12:56 PM 30.9°F-0.6°C 19.8°F-6.8°C 63% 0.7 mph E1.1 kmh E 3.1 mph5.0 kmh 30.63 in1037.3 mb 0.00 in0.0 mm 0.00 in0.0 mm 0.00 in0.0 mm
12:54 PM 30.4°F-0.9°C 19.3°F-7.1°C 63% 1.6 mph E2.6 kmh E 3.1 mph5.0 kmh 30.63 in1037.3 mb 0.00 in0.0 mm 0.00 in0.0 mm 0.00 in0.0 mm
12:52 PM 30.0°F-1.1°C 19.0°F-7.2°C 63% 0.7 mph ENE1.1 kmh ENE 3.1 mph5.0 kmh 30.63 in1037.3 mb 0.00 in0.0 mm 0.00 in0.0 mm 0.00 in0.0 mm
12:50 PM 29.8°F-1.2°C 18.8°F-7.3°C 63% 0.7 mph NE1.1 kmh NE 4.5 mph7.2 kmh 30.63 in1037.3 mb 0.00 in0.0 mm 0.00 in0.0 mm 0.00 in0.0 mm
12:48 PM 30.0°F-1.1°C 19.0°F-7.2°C 63% 0.7 mph NE1.1 kmh NE 4.5 mph7.2 kmh 30.63 in1037.3 mb 0.00 in0.0 mm 0.00 in0.0 mm 0.00 in0.0 mm
12:46 PM 30.4°F-0.9°C 19.7°F-6.8°C 64% 0.7 mph NE1.1 kmh NE 4.5 mph7.2 kmh 30.63 in1037.3 mb 0.00 in0.0 mm 0.00 in0.0 mm 0.00 in0.0 mm
12:44 PM 30.7°F-0.7°C 20.0°F-6.7°C 64% 0.7 mph NE1.1 kmh NE 4.5 mph7.2 kmh 30.64 in1037.6 mb 0.00 in0.0 mm 0.00 in0.0 mm 0.00 in0.0 mm
12:42 PM 30.4°F-0.9°C 19.7°F-6.8°C 64% 1.6 mph NE2.6 kmh NE 4.5 mph7.2 kmh 30.63 in1037.3 mb 0.00 in0.0 mm 0.00 in0.0 mm 0.00 in0.0 mm
12:40 PM 30.7°F-0.7°C 20.0°F-6.7°C 64% 2.2 mph NNE3.5 kmh NNE 3.8 mph6.1 kmh 30.64 in1037.6 mb 0.00 in0.0 mm 0.00 in0.0 mm 0.00 in0.0 mm
12:38 PM 30.6°F-0.8°C 19.9°F-6.7°C 64% 2.2 mph NE3.5 kmh NE 3.8 mph6.1 kmh 30.64 in1037.6 mb 0.00 in0.0 mm 0.00 in0.0 mm 0.00 in0.0 mm
12:36 PM 30.4°F-0.9°C 20.4°F-6.4°C 66% 0.7 mph NNE1.1 kmh NNE 5.4 mph8.7 kmh 30.63 in1037.3 mb 0.00 in0.0 mm 0.00 in0.0 mm 0.00 in0.0 mm
12:34 PM 30.2°F-1.0°C 19.9°F-6.7°C 65% 0.7 mph NNE1.1 kmh NNE 5.4 mph8.7 kmh 30.64 in1037.6 mb 0.00 in0.0 mm 0.00 in0.0 mm 0.00 in0.0 mm
12:32 PM 29.7°F-1.3°C 19.7°F-6.8°C 66% 1.6 mph NNE2.6 kmh NNE 5.4 mph8.7 kmh 30.64 in1037.6 mb 0.00 in0.0 mm 0.00 in0.0 mm 0.00 in0.0 mm
12:30 PM 28.8°F-1.8°C 19.6°F-6.9°C 68% Calm Calm 5.4 mph8.7 kmh 30.64 in1037.6 mb 0.00 in0.0 mm 0.00 in0.0 mm 0.00 in0.0 mm
12:28 PM 28.4°F-2.0°C 18.9°F-7.3°C 67% 1.6 mph NNE2.6 kmh NNE 5.4 mph8.7 kmh 30.64 in1037.6 mb 0.00 in0.0 mm 0.00 in0.0 mm 0.00 in0.0 mm
12:26 PM 27.9°F-2.3°C 18.4°F-7.6°C 67% 3.8 mph NNE6.1 kmh NNE 6.0 mph9.7 kmh 30.64 in1037.6 mb 0.00 in0.0 mm 0.00 in0.0 mm 0.00 in0.0 mm
12:24 PM 27.1°F-2.7°C 18.0°F-7.8°C 68% 0.7 mph NNE1.1 kmh NNE 6.0 mph9.7 kmh 30.64 in1037.6 mb 0.00 in0.0 mm 0.00 in0.0 mm 0.00 in0.0 mm
12:22 PM 26.6°F-3.0°C 17.2°F-8.2°C 67% 2.2 mph NE3.5 kmh NE 6.0 mph9.7 kmh 30.64 in1037.6 mb 0.00 in0.0 mm 0.00 in0.0 mm 0.00 in0.0 mm
12:20 PM 26.6°F-3.0°C 17.2°F-8.2°C 67% 2.2 mph NE3.5 kmh NE 6.0 mph9.7 kmh 30.64 in1037.6 mb 0.00 in0.0 mm 0.00 in0.0 mm 0.00 in0.0 mm
12:18 PM 26.6°F-3.0°C 16.8°F-8.4°C 66% 2.2 mph NNE3.5 kmh NNE 6.0 mph9.7 kmh 30.64 in1037.6 mb 0.00 in0.0 mm 0.00 in0.0 mm 0.00 in0.0 mm
12:16 PM 27.0°F-2.8°C 17.2°F-8.2°C 66% 3.1 mph NNE5.0 kmh NNE 4.5 mph7.2 kmh 30.64 in1037.6 mb 0.00 in0.0 mm 0.00 in0.0 mm 0.00 in0.0 mm
12:14 PM 27.1°F-2.7°C 17.3°F-8.2°C 66% 1.6 mph N2.6 kmh N 4.5 mph7.2 kmh 30.64 in1037.6 mb 0.00 in0.0 mm 0.00 in0.0 mm 0.00 in0.0 mm
12:12 PM 27.7°F-2.4°C 17.8°F-7.9°C 66% Calm Calm 3.8 mph6.1 kmh 30.64 in1037.6 mb 0.00 in0.0 mm 0.00 in0.0 mm 0.00 in0.0 mm
12:10 PM 27.9°F-2.3°C 18.0°F-7.8°C 66% Calm Calm 3.8 mph6.1 kmh 30.64 in1037.6 mb 0.00 in0.0 mm 0.00 in0.0 mm 0.00 in0.0 mm
12:08 PM 28.0°F-2.2°C 18.2°F-7.7°C 66% 0.7 mph NE1.1 kmh NE 3.8 mph6.1 kmh 30.64 in1037.6 mb 0.00 in0.0 mm 0.00 in0.0 mm 0.00 in0.0 mm
12:06 PM 27.9°F-2.3°C 18.4°F-7.6°C 67% Calm Calm 3.1 mph5.0 kmh 30.64 in1037.6 mb 0.00 in0.0 mm 0.00 in0.0 mm 0.00 in0.0 mm
12:04 PM 27.5°F-2.5°C 17.7°F-7.9°C 66% Calm Calm 3.1 mph5.0 kmh 30.64 in1037.6 mb 0.00 in0.0 mm 0.00 in0.0 mm 0.00 in0.0 mm
12:02 PM 27.7°F-2.4°C 18.5°F-7.5°C 68% 0.7 mph ENE1.1 kmh ENE 3.8 mph6.1 kmh 30.64 in1037.6 mb 0.00 in0.0 mm 0.00 in0.0 mm 0.00 in0.0 mm
12:00 PM 27.3°F-2.6°C 18.2°F-7.7°C 68% 0.7 mph NE1.1 kmh NE 3.8 mph6.1 kmh 30.65 in1037.9 mb 0.00 in0.0 mm 0.00 in0.0 mm 0.00 in0.0 mm
11:58 AM 27.1°F-2.7°C 18.0°F-7.8°C 68% 0.7 mph NE1.1 kmh NE 3.8 mph6.1 kmh 30.64 in1037.6 mb 0.00 in0.0 mm 0.00 in0.0 mm 0.00 in0.0 mm
11:56 AM 26.1°F-3.3°C 16.6°F-8.6°C 67% 0.7 mph NE1.1 kmh NE 3.8 mph6.1 kmh 30.64 in1037.6 mb 0.00 in0.0 mm 0.00 in0.0 mm 0.00 in0.0 mm
11:54 AM 25.7°F-3.5°C 16.3°F-8.7°C 67% 0.7 mph NE1.1 kmh NE 3.8 mph6.1 kmh 30.65 in1037.9 mb 0.00 in0.0 mm 0.00 in0.0 mm 0.00 in0.0 mm
11:52 AM 26.1°F-3.3°C 15.9°F-8.9°C 65% 2.2 mph NE3.5 kmh NE 3.8 mph6.1 kmh 30.64 in1037.6 mb 0.00 in0.0 mm 0.00 in0.0 mm 0.00 in0.0 mm
11:50 AM 26.6°F-3.0°C 16.5°F-8.6°C 65% 1.6 mph NE2.6 kmh NE 3.8 mph6.1 kmh 30.64 in1037.6 mb 0.00 in0.0 mm 0.00 in0.0 mm 0.00 in0.0 mm
11:48 AM 27.5°F-2.5°C 17.7°F-7.9°C 66% 1.6 mph NE2.6 kmh NE 3.8 mph6.1 kmh 30.65 in1037.9 mb 0.00 in0.0 mm 0.00 in0.0 mm 0.00 in0.0 mm
11:46 AM 28.0°F-2.2°C 18.2°F-7.7°C 66% 0.7 mph NE1.1 kmh NE 3.8 mph6.1 kmh 30.65 in1037.9 mb 0.00 in0.0 mm 0.00 in0.0 mm 0.00 in0.0 mm
11:44 AM 28.2°F-2.1°C 18.0°F-7.8°C 65% 1.6 mph NE2.6 kmh NE 3.8 mph6.1 kmh 30.65 in1037.9 mb 0.00 in0.0 mm 0.00 in0.0 mm 0.00 in0.0 mm
11:42 AM 28.2°F-2.1°C 18.0°F-7.8°C 65% 2.2 mph NE3.5 kmh NE 3.8 mph6.1 kmh 30.65 in1037.9 mb 0.00 in0.0 mm 0.00 in0.0 mm 0.00 in0.0 mm
11:40 AM 27.9°F-2.3°C 17.7°F-7.9°C 65% Calm Calm 3.1 mph5.0 kmh 30.65 in1037.9 mb 0.00 in0.0 mm 0.00 in0.0 mm 0.00 in0.0 mm
11:38 AM 28.0°F-2.2°C 18.2°F-7.7°C 66% 1.6 mph NE2.6 kmh NE 3.1 mph5.0 kmh 30.65 in1037.9 mb 0.00 in0.0 mm 0.00 in0.0 mm 0.00 in0.0 mm
11:36 AM 28.2°F-2.1°C 18.7°F-7.4°C 67% 0.7 mph N1.1 kmh N 3.1 mph5.0 kmh 30.65 in1037.9 mb 0.00 in0.0 mm 0.00 in0.0 mm 0.00 in0.0 mm
11:34 AM 27.9°F-2.3°C 18.0°F-7.8°C 66% 0.7 mph WSW1.1 kmh WSW 3.1 mph5.0 kmh 30.66 in1038.3 mb 0.00 in0.0 mm 0.00 in0.0 mm 0.00 in0.0 mm
11:32 AM 27.1°F-2.7°C 17.7°F-7.9°C 67% Calm Calm 3.1 mph5.0 kmh 30.65 in1037.9 mb 0.00 in0.0 mm 0.00 in0.0 mm 0.00 in0.0 mm
11:30 AM 26.8°F-2.9°C 17.3°F-8.2°C 67% Calm Calm 3.1 mph5.0 kmh 30.66 in1038.3 mb 0.00 in0.0 mm 0.00 in0.0 mm 0.00 in0.0 mm
11:28 AM 26.8°F-2.9°C 17.3°F-8.2°C 67% 0.7 mph S1.1 kmh S 3.1 mph5.0 kmh 30.66 in1038.3 mb 0.00 in0.0 mm 0.00 in0.0 mm 0.00 in0.0 mm
11:26 AM 26.8°F-2.9°C 17.3°F-8.2°C 67% 1.6 mph S2.6 kmh S 3.1 mph5.0 kmh 30.66 in1038.3 mb 0.00 in0.0 mm 0.00 in0.0 mm 0.00 in0.0 mm
11:24 AM 26.8°F-2.9°C 17.3°F-8.2°C 67% Calm Calm 3.1 mph5.0 kmh 30.66 in1038.3 mb 0.00 in0.0 mm 0.00 in0.0 mm 0.00 in0.0 mm
11:22 AM 27.0°F-2.8°C 17.5°F-8.1°C 67% Calm Calm 3.1 mph5.0 kmh 30.66 in1038.3 mb 0.00 in0.0 mm 0.00 in0.0 mm 0.00 in0.0 mm
11:20 AM 27.3°F-2.6°C 18.2°F-7.7°C 68% Calm Calm 3.1 mph5.0 kmh 30.66 in1038.3 mb 0.00 in0.0 mm 0.00 in0.0 mm 0.00 in0.0 mm
11:18 AM 27.5°F-2.5°C 18.4°F-7.6°C 68% 0.7 mph E1.1 kmh E 3.1 mph5.0 kmh 30.66 in1038.3 mb 0.00 in0.0 mm 0.00 in0.0 mm 0.00 in0.0 mm
11:16 AM 27.9°F-2.3°C 19.4°F-7.0°C 70% 1.6 mph E2.6 kmh E 3.1 mph5.0 kmh 30.66 in1038.3 mb 0.00 in0.0 mm 0.00 in0.0 mm 0.00 in0.0 mm
11:14 AM 27.3°F-2.6°C 19.2°F-7.1°C 71% Calm Calm 2.2 mph3.5 kmh 30.66 in1038.3 mb 0.00 in0.0 mm 0.00 in0.0 mm 0.00 in0.0 mm
11:12 AM 27.0°F-2.8°C 18.8°F-7.3°C 71% Calm Calm 3.1 mph5.0 kmh 30.66 in1038.3 mb 0.00 in0.0 mm 0.00 in0.0 mm 0.00 in0.0 mm
11:10 AM 26.6°F-3.0°C 18.5°F-7.5°C 71% Calm Calm 3.1 mph5.0 kmh 30.66 in1038.3 mb 0.00 in0.0 mm 0.00 in0.0 mm 0.00 in0.0 mm
11:08 AM 25.9°F-3.4°C 17.5°F-8.1°C 70% 0.7 mph E1.1 kmh E 3.1 mph5.0 kmh 30.66 in1038.3 mb 0.00 in0.0 mm 0.00 in0.0 mm 0.00 in0.0 mm
11:06 AM 25.5°F-3.6°C 17.5°F-8.1°C 71% 0.7 mph E1.1 kmh E 3.1 mph5.0 kmh 30.67 in1038.6 mb 0.00 in0.0 mm 0.00 in0.0 mm 0.00 in0.0 mm
11:04 AM 24.8°F-4.0°C 16.8°F-8.4°C 71% 0.7 mph E1.1 kmh E 3.1 mph5.0 kmh 30.66 in1038.3 mb 0.00 in0.0 mm 0.00 in0.0 mm 0.00 in0.0 mm
11:02 AM 24.6°F-4.1°C 16.6°F-8.6°C 71% 0.7 mph ENE1.1 kmh ENE 3.1 mph5.0 kmh 30.66 in1038.3 mb 0.00 in0.0 mm 0.00 in0.0 mm 0.00 in0.0 mm
11:00 AM 24.4°F-4.2°C 16.4°F-8.7°C 71% 0.7 mph NE1.1 kmh NE 3.1 mph5.0 kmh 30.67 in1038.6 mb 0.00 in0.0 mm 0.00 in0.0 mm 0.00 in0.0 mm
10:58 AM 24.4°F-4.2°C 16.4°F-8.7°C 71% 0.7 mph NE1.1 kmh NE 3.1 mph5.0 kmh 30.67 in1038.6 mb 0.00 in0.0 mm 0.00 in0.0 mm 0.00 in0.0 mm
10:56 AM 24.8°F-4.0°C 17.1°F-8.3°C 72% Calm Calm 2.2 mph3.5 kmh 30.67 in1038.6 mb 0.00 in0.0 mm 0.00 in0.0 mm 0.00 in0.0 mm
10:54 AM 25.2°F-3.8°C 17.8°F-7.9°C 73% 0.7 mph N1.1 kmh N 2.2 mph3.5 kmh 30.67 in1038.6 mb 0.00 in0.0 mm 0.00 in0.0 mm 0.00 in0.0 mm
10:52 AM 25.2°F-3.8°C 17.8°F-7.9°C 73% 0.7 mph N1.1 kmh N 2.2 mph3.5 kmh 30.67 in1038.6 mb 0.00 in0.0 mm 0.00 in0.0 mm 0.00 in0.0 mm
10:50 AM 24.8°F-4.0°C 17.7°F-7.9°C 74% 0.7 mph N1.1 kmh N 2.2 mph3.5 kmh 30.67 in1038.6 mb 0.00 in0.0 mm 0.00 in0.0 mm 0.00 in0.0 mm
10:48 AM 23.9°F-4.5°C 17.2°F-8.2°C 75% Calm Calm 2.2 mph3.5 kmh 30.67 in1038.6 mb 0.00 in0.0 mm 0.00 in0.0 mm 0.00 in0.0 mm
10:46 AM 23.5°F-4.7°C 16.5°F-8.6°C 74% 0.7 mph N1.1 kmh N 2.2 mph3.5 kmh 30.67 in1038.6 mb 0.00 in0.0 mm 0.00 in0.0 mm 0.00 in0.0 mm
10:44 AM 23.0°F-5.0°C 16.3°F-8.7°C 75% Calm Calm 2.2 mph3.5 kmh 30.67 in1038.6 mb 0.00 in0.0 mm 0.00 in0.0 mm 0.00 in0.0 mm
10:42 AM 22.5°F-5.3°C 15.8°F-9.0°C 75% Calm Calm 2.2 mph3.5 kmh 30.67 in1038.6 mb 0.00 in0.0 mm 0.00 in0.0 mm 0.00 in0.0 mm
10:40 AM 21.6°F-5.8°C 14.9°F-9.5°C 75% 0.7 mph NE1.1 kmh NE 3.1 mph5.0 kmh 30.67 in1038.6 mb 0.00 in0.0 mm 0.00 in0.0 mm 0.00 in0.0 mm
10:38 AM 20.8°F-6.2°C 14.2°F-9.9°C 75% Calm Calm 3.1 mph5.0 kmh 30.68 in1038.9 mb 0.00 in0.0 mm 0.00 in0.0 mm 0.00 in0.0 mm
10:36 AM 20.3°F-6.5°C 13.7°F-10.2°C 75% Calm Calm 3.1 mph5.0 kmh 30.68 in1038.9 mb 0.00 in0.0 mm 0.00 in0.0 mm 0.00 in0.0 mm
10:34 AM 19.8°F-6.8°C 13.2°F-10.4°C 75% Calm Calm 3.1 mph5.0 kmh 30.68 in1038.9 mb 0.00 in0.0 mm 0.00 in0.0 mm 0.00 in0.0 mm
10:32 AM 19.6°F-6.9°C 13.0°F-10.6°C 75% 0.7 mph N1.1 kmh N 3.8 mph6.1 kmh 30.68 in1038.9 mb 0.00 in0.0 mm 0.00 in0.0 mm 0.00 in0.0 mm
10:30 AM 19.4°F-7.0°C 12.8°F-10.7°C 75% 0.7 mph N1.1 kmh N 3.8 mph6.1 kmh 30.68 in1038.9 mb 0.00 in0.0 mm 0.00 in0.0 mm 0.00 in0.0 mm
10:28 AM 19.4°F-7.0°C 12.8°F-10.7°C 75% 0.7 mph N1.1 kmh N 3.8 mph6.1 kmh 30.67 in1038.6 mb 0.00 in0.0 mm 0.00 in0.0 mm 0.00 in0.0 mm
10:26 AM 19.2°F-7.1°C 12.6°F-10.8°C 75% Calm Calm 3.8 mph6.1 kmh 30.68 in1038.9 mb 0.00 in0.0 mm 0.00 in0.0 mm 0.00 in0.0 mm
10:24 AM 19.2°F-7.1°C 12.6°F-10.8°C 75% 2.2 mph NNE3.5 kmh NNE 3.8 mph6.1 kmh 30.67 in1038.6 mb 0.00 in0.0 mm 0.00 in0.0 mm 0.00 in0.0 mm
10:22 AM 19.0°F-7.2°C 12.5°F-10.8°C 75% 1.6 mph NNE2.6 kmh NNE 3.8 mph6.1 kmh 30.68 in1038.9 mb 0.00 in0.0 mm 0.00 in0.0 mm 0.00 in0.0 mm
10:20 AM 19.0°F-7.2°C 12.5°F-10.8°C 75% 0.7 mph NNE1.1 kmh NNE 3.8 mph6.1 kmh 30.68 in1038.9 mb 0.00 in0.0 mm 0.00 in0.0 mm 0.00 in0.0 mm
10:18 AM 19.0°F-7.2°C 12.5°F-10.8°C 75% 2.2 mph NNE3.5 kmh NNE 3.8 mph6.1 kmh 30.68 in1038.9 mb 0.00 in0.0 mm 0.00 in0.0 mm 0.00 in0.0 mm
10:16 AM 19.2°F-7.1°C 12.6°F-10.8°C 75% 1.6 mph N2.6 kmh N 3.8 mph6.1 kmh 30.68 in1038.9 mb 0.00 in0.0 mm 0.00 in0.0 mm 0.00 in0.0 mm
10:14 AM 19.2°F-7.1°C 12.6°F-10.8°C 75% 1.6 mph N2.6 kmh N 3.8 mph6.1 kmh 30.68 in1038.9 mb 0.00 in0.0 mm 0.00 in0.0 mm 0.00 in0.0 mm
10:12 AM 18.7°F-7.4°C 12.4°F-10.9°C 76% Calm Calm 3.8 mph6.1 kmh 30.68 in1038.9 mb 0.00 in0.0 mm 0.00 in0.0 mm 0.00 in0.0 mm
10:10 AM 18.3°F-7.6°C 11.8°F-11.2°C 75% 1.6 mph NNE2.6 kmh NNE 3.8 mph6.1 kmh 30.68 in1038.9 mb 0.00 in0.0 mm 0.00 in0.0 mm 0.00 in0.0 mm
10:08 AM 18.1°F-7.7°C 11.6°F-11.3°C 75% Calm Calm 3.8 mph6.1 kmh 30.68 in1038.9 mb 0.00 in0.0 mm 0.00 in0.0 mm 0.00 in0.0 mm
10:06 AM 18.3°F-7.6°C 11.8°F-11.2°C 75% 1.6 mph NE2.6 kmh NE 3.8 mph6.1 kmh 30.68 in1038.9 mb 0.00 in0.0 mm 0.00 in0.0 mm 0.00 in0.0 mm
10:04 AM 18.5°F-7.5°C 11.7°F-11.3°C 74% 2.2 mph NE3.5 kmh NE 3.8 mph6.1 kmh 30.68 in1038.9 mb 0.00 in0.0 mm 0.00 in0.0 mm 0.00 in0.0 mm
10:02 AM 18.9°F-7.3°C 12.3°F-10.9°C 75% 1.6 mph NE2.6 kmh NE 3.8 mph6.1 kmh 30.68 in1038.9 mb 0.00 in0.0 mm 0.00 in0.0 mm 0.00 in0.0 mm
10:00 AM 18.9°F-7.3°C 12.6°F-10.8°C 76% Calm Calm 2.2 mph3.5 kmh 30.68 in1038.9 mb 0.00 in0.0 mm 0.00 in0.0 mm 0.00 in0.0 mm
09:58 AM 18.9°F-7.3°C 12.9°F-10.6°C 77% Calm Calm 3.1 mph5.0 kmh 30.69 in1039.3 mb 0.00 in0.0 mm 0.00 in0.0 mm 0.00 in0.0 mm
09:56 AM 18.9°F-7.3°C 12.6°F-10.8°C 76% 0.7 mph NNE1.1 kmh NNE 3.1 mph5.0 kmh 30.69 in1039.3 mb 0.00 in0.0 mm 0.00 in0.0 mm 0.00 in0.0 mm
09:54 AM 18.9°F-7.3°C 12.9°F-10.6°C 77% 0.7 mph N1.1 kmh N 3.1 mph5.0 kmh 30.69 in1039.3 mb 0.00 in0.0 mm 0.00 in0.0 mm 0.00 in0.0 mm
09:52 AM 19.0°F-7.2°C 13.1°F-10.5°C 77% Calm Calm 3.1 mph5.0 kmh 30.69 in1039.3 mb 0.00 in0.0 mm 0.00 in0.0 mm 0.00 in0.0 mm
09:50 AM 19.2°F-7.1°C 13.2°F-10.4°C 77% 0.7 mph N1.1 kmh N 3.1 mph5.0 kmh 30.69 in1039.3 mb 0.00 in0.0 mm 0.00 in0.0 mm 0.00 in0.0 mm
09:48 AM 19.0°F-7.2°C 13.1°F-10.5°C 77% 1.6 mph NE2.6 kmh NE 3.1 mph5.0 kmh 30.69 in1039.3 mb 0.00 in0.0 mm 0.00 in0.0 mm 0.00 in0.0 mm
09:46 AM 18.7°F-7.4°C 13.0°F-10.6°C 78% 1.6 mph ESE2.6 kmh ESE 3.1 mph5.0 kmh 30.69 in1039.3 mb 0.00 in0.0 mm 0.00 in0.0 mm 0.00 in0.0 mm
09:44 AM 18.1°F-7.7°C 13.1°F-10.5°C 80% 0.7 mph E1.1 kmh E 2.2 mph3.5 kmh 30.69 in1039.3 mb 0.00 in0.0 mm 0.00 in0.0 mm 0.00 in0.0 mm
09:42 AM 17.8°F-7.9°C 12.7°F-10.7°C 80% 1.6 mph E2.6 kmh E 2.2 mph3.5 kmh 30.69 in1039.3 mb 0.00 in0.0 mm 0.00 in0.0 mm 0.00 in0.0 mm
09:40 AM 17.2°F-8.2°C 12.5°F-10.8°C 81% 0.7 mph ENE1.1 kmh ENE 2.2 mph3.5 kmh 30.69 in1039.3 mb 0.00 in0.0 mm 0.00 in0.0 mm 0.00 in0.0 mm
09:38 AM 17.1°F-8.3°C 12.3°F-10.9°C 81% Calm Calm 2.2 mph3.5 kmh 30.69 in1039.3 mb 0.00 in0.0 mm 0.00 in0.0 mm 0.00 in0.0 mm
09:36 AM 17.1°F-8.3°C 12.6°F-10.8°C 82% 0.7 mph NE1.1 kmh NE 2.2 mph3.5 kmh 30.69 in1039.3 mb 0.00 in0.0 mm 0.00 in0.0 mm 0.00 in0.0 mm
09:34 AM 16.9°F-8.4°C 12.4°F-10.9°C 82% 0.7 mph NE1.1 kmh NE 2.2 mph3.5 kmh 30.70 in1039.6 mb 0.00 in0.0 mm 0.00 in0.0 mm 0.00 in0.0 mm
09:32 AM 16.5°F-8.6°C 12.0°F-11.1°C 82% Calm Calm 2.2 mph3.5 kmh 30.70 in1039.6 mb 0.00 in0.0 mm 0.00 in0.0 mm 0.00 in0.0 mm
09:30 AM 16.2°F-8.8°C 11.7°F-11.3°C 82% Calm Calm 2.2 mph3.5 kmh 30.70 in1039.6 mb 0.00 in0.0 mm 0.00 in0.0 mm 0.00 in0.0 mm
09:28 AM 16.0°F-8.9°C 11.5°F-11.4°C 82% 0.7 mph NE1.1 kmh NE 2.2 mph3.5 kmh 30.70 in1039.6 mb 0.00 in0.0 mm 0.00 in0.0 mm 0.00 in0.0 mm
09:26 AM 15.6°F-9.1°C 11.4°F-11.4°C 83% 0.7 mph NE1.1 kmh NE 1.6 mph2.6 kmh 30.70 in1039.6 mb 0.00 in0.0 mm 0.00 in0.0 mm 0.00 in0.0 mm
09:24 AM 15.1°F-9.4°C 10.9°F-11.7°C 83% Calm Calm 1.6 mph2.6 kmh 30.70 in1039.6 mb 0.00 in0.0 mm 0.00 in0.0 mm 0.00 in0.0 mm
09:22 AM 14.9°F-9.5°C 11.0°F-11.7°C 84% Calm Calm 1.6 mph2.6 kmh 30.70 in1039.6 mb 0.00 in0.0 mm 0.00 in0.0 mm 0.00 in0.0 mm
09:20 AM 14.5°F-9.7°C 10.6°F-11.9°C 84% Calm Calm 0.7 mph1.1 kmh 30.70 in1039.6 mb 0.00 in0.0 mm 0.00 in0.0 mm 0.00 in0.0 mm
09:18 AM 14.2°F-9.9°C 10.3°F-12.1°C 84% Calm Calm 0.7 mph1.1 kmh 30.70 in1039.6 mb 0.00 in0.0 mm 0.00 in0.0 mm 0.00 in0.0 mm
09:16 AM 14.2°F-9.9°C 10.6°F-11.9°C 85% Calm Calm 0.7 mph1.1 kmh 30.70 in1039.6 mb 0.00 in0.0 mm 0.00 in0.0 mm 0.00 in0.0 mm
09:14 AM 14.0°F-10.0°C 10.6°F-11.9°C 86% Calm Calm -- 30.70 in1039.6 mb 0.00 in0.0 mm 0.00 in0.0 mm 0.00 in0.0 mm
09:12 AM 13.5°F-10.3°C 10.1°F-12.2°C 86% Calm Calm -- 30.70 in1039.6 mb 0.00 in0.0 mm 0.00 in0.0 mm 0.00 in0.0 mm
09:10 AM 12.9°F-10.6°C 9.6°F-12.4°C 86% Calm Calm -- 30.70 in1039.6 mb 0.00 in0.0 mm 0.00 in0.0 mm 0.00 in0.0 mm
09:08 AM 12.6°F-10.8°C 9.2°F-12.7°C 86% Calm Calm -- 30.70 in1039.6 mb 0.00 in0.0 mm 0.00 in0.0 mm 0.00 in0.0 mm
09:06 AM 12.6°F-10.8°C 9.2°F-12.7°C 86% Calm Calm -- 30.70 in1039.6 mb 0.00 in0.0 mm 0.00 in0.0 mm 0.00 in0.0 mm
09:04 AM 12.2°F-11.0°C 9.1°F-12.7°C 87% Calm Calm -- 30.70 in1039.6 mb 0.00 in0.0 mm 0.00 in0.0 mm 0.00 in0.0 mm
09:02 AM 11.7°F-11.3°C 8.6°F-13.0°C 87% Calm Calm -- 30.70 in1039.6 mb 0.00 in0.0 mm 0.00 in0.0 mm 0.00 in0.0 mm
09:00 AM 11.3°F-11.5°C 8.0°F-13.3°C 86% Calm Calm -- 30.70 in1039.6 mb 0.00 in0.0 mm 0.00 in0.0 mm 0.00 in0.0 mm
08:58 AM 11.1°F-11.6°C 7.8°F-13.4°C 86% Calm Calm -- 30.70 in1039.6 mb 0.00 in0.0 mm 0.00 in0.0 mm 0.00 in0.0 mm
08:56 AM 10.9°F-11.7°C 7.9°F-13.4°C 87% Calm Calm -- 30.71 in1040.0 mb 0.00 in0.0 mm 0.00 in0.0 mm 0.00 in0.0 mm
08:54 AM 10.8°F-11.8°C 7.7°F-13.5°C 87% Calm Calm -- 30.70 in1039.6 mb 0.00 in0.0 mm 0.00 in0.0 mm 0.00 in0.0 mm
08:52 AM 10.6°F-11.9°C 7.5°F-13.6°C 87% Calm Calm -- 30.70 in1039.6 mb 0.00 in0.0 mm 0.00 in0.0 mm 0.00 in0.0 mm
08:50 AM 10.4°F-12.0°C 7.4°F-13.7°C 87% Calm Calm -- 30.71 in1040.0 mb 0.00 in0.0 mm 0.00 in0.0 mm 0.00 in0.0 mm
08:48 AM 10.4°F-12.0°C 7.4°F-13.7°C 87% Calm Calm -- 30.70 in1039.6 mb 0.00 in0.0 mm 0.00 in0.0 mm 0.00 in0.0 mm
08:46 AM 10.2°F-12.1°C 7.2°F-13.8°C 87% Calm Calm -- 30.71 in1040.0 mb 0.00 in0.0 mm 0.00 in0.0 mm 0.00 in0.0 mm
08:44 AM 10.0°F-12.2°C 7.0°F-13.9°C 87% Calm Calm -- 30.71 in1040.0 mb 0.00 in0.0 mm 0.00 in0.0 mm 0.00 in0.0 mm
08:42 AM 9.9°F-12.3°C 7.1°F-13.8°C 88% Calm Calm -- 30.71 in1040.0 mb 0.00 in0.0 mm 0.00 in0.0 mm 0.00 in0.0 mm
08:40 AM 9.9°F-12.3°C 7.1°F-13.8°C 88% Calm Calm -- 30.71 in1040.0 mb 0.00 in0.0 mm 0.00 in0.0 mm 0.00 in0.0 mm
08:38 AM 9.9°F-12.3°C 7.1°F-13.8°C 88% Calm Calm -- 30.71 in1040.0 mb 0.00 in0.0 mm 0.00 in0.0 mm 0.00 in0.0 mm
08:36 AM 9.7°F-12.4°C 7.2°F-13.8°C 89% Calm Calm -- 30.70 in1039.6 mb 0.00 in0.0 mm 0.00 in0.0 mm 0.00 in0.0 mm
08:34 AM 9.3°F-12.6°C 6.8°F-14.0°C 89% Calm Calm -- 30.70 in1039.6 mb 0.00 in0.0 mm 0.00 in0.0 mm 0.00 in0.0 mm
08:32 AM 9.1°F-12.7°C 6.6°F-14.1°C 89% Calm Calm -- 30.71 in1040.0 mb 0.00 in0.0 mm 0.00 in0.0 mm 0.00 in0.0 mm
08:30 AM 8.6°F-13.0°C 6.1°F-14.4°C 89% Calm Calm -- 30.70 in1039.6 mb 0.00 in0.0 mm 0.00 in0.0 mm 0.00 in0.0 mm
08:28 AM 8.4°F-13.1°C 5.9°F-14.5°C 89% Calm Calm -- 30.71 in1040.0 mb 0.00 in0.0 mm 0.00 in0.0 mm 0.00 in0.0 mm
08:26 AM 8.4°F-13.1°C 5.9°F-14.5°C 89% Calm Calm -- 30.70 in1039.6 mb 0.00 in0.0 mm 0.00 in0.0 mm 0.00 in0.0 mm
08:24 AM 8.2°F-13.2°C 6.0°F-14.4°C 90% Calm Calm -- 30.70 in1039.6 mb 0.00 in0.0 mm 0.00 in0.0 mm 0.00 in0.0 mm
08:22 AM 7.9°F-13.4°C 5.6°F-14.7°C 90% Calm Calm -- 30.70 in1039.6 mb 0.00 in0.0 mm 0.00 in0.0 mm 0.00 in0.0 mm
08:20 AM 7.7°F-13.5°C 5.5°F-14.7°C 90% Calm Calm -- 30.70 in1039.6 mb 0.00 in0.0 mm 0.00 in0.0 mm 0.00 in0.0 mm
08:18 AM 7.3°F-13.7°C 5.1°F-14.9°C 90% Calm Calm -- 30.71 in1040.0 mb 0.00 in0.0 mm 0.00 in0.0 mm 0.00 in0.0 mm
08:16 AM 7.2°F-13.8°C 4.7°F-15.2°C 89% Calm Calm -- 30.71 in1040.0 mb 0.00 in0.0 mm 0.00 in0.0 mm 0.00 in0.0 mm
08:14 AM 7.0°F-13.9°C 4.5°F-15.3°C 89% Calm Calm -- 30.71 in1040.0 mb 0.00 in0.0 mm 0.00 in0.0 mm 0.00 in0.0 mm
08:12 AM 6.6°F-14.1°C 4.4°F-15.3°C 90% Calm Calm -- 30.71 in1040.0 mb 0.00 in0.0 mm 0.00 in0.0 mm 0.00 in0.0 mm
08:10 AM 6.4°F-14.2°C 4.2°F-15.4°C 90% Calm Calm -- 30.71 in1040.0 mb 0.00 in0.0 mm 0.00 in0.0 mm 0.00 in0.0 mm
08:08 AM 6.1°F-14.4°C 3.9°F-15.6°C 90% Calm Calm -- 30.71 in1040.0 mb 0.00 in0.0 mm 0.00 in0.0 mm 0.00 in0.0 mm
08:06 AM 6.1°F-14.4°C 3.6°F-15.8°C 89% Calm Calm -- 30.71 in1040.0 mb 0.00 in0.0 mm 0.00 in0.0 mm 0.00 in0.0 mm
08:04 AM 5.7°F-14.6°C 3.3°F-15.9°C 89% Calm Calm 1.6 mph2.6 kmh 30.71 in1040.0 mb 0.00 in0.0 mm 0.00 in0.0 mm 0.00 in0.0 mm
08:02 AM 5.4°F-14.8°C 2.9°F-16.2°C 89% Calm Calm 2.2 mph3.5 kmh 30.71 in1040.0 mb 0.00 in0.0 mm 0.00 in0.0 mm 0.00 in0.0 mm
08:00 AM 5.2°F-14.9°C 2.7°F-16.3°C 89% Calm Calm 2.2 mph3.5 kmh 30.71 in1040.0 mb 0.00 in0.0 mm 0.00 in0.0 mm 0.00 in0.0 mm
07:58 AM 5.2°F-14.9°C 2.7°F-16.3°C 89% Calm Calm 2.2 mph3.5 kmh 30.71 in1040.0 mb 0.00 in0.0 mm 0.00 in0.0 mm 0.00 in0.0 mm
07:56 AM 5.0°F-15.0°C 2.6°F-16.3°C 89% Calm Calm 2.2 mph3.5 kmh 30.71 in1040.0 mb 0.00 in0.0 mm 0.00 in0.0 mm 0.00 in0.0 mm
07:54 AM 4.8°F-15.1°C 2.4°F-16.4°C 89% Calm Calm 2.2 mph3.5 kmh 30.71 in1040.0 mb 0.00 in0.0 mm 0.00 in0.0 mm 0.00 in0.0 mm
07:52 AM 4.6°F-15.2°C 2.2°F-16.6°C 89% Calm Calm -- 30.71 in1040.0 mb 0.00 in0.0 mm 0.00 in0.0 mm 0.00 in0.0 mm
07:50 AM 4.5°F-15.3°C 2.0°F-16.7°C 89% Calm Calm -- 30.71 in1040.0 mb 0.00 in0.0 mm 0.00 in0.0 mm 0.00 in0.0 mm
07:48 AM 4.5°F-15.3°C 2.0°F-16.7°C 89% Calm Calm -- 30.71 in1040.0 mb 0.00 in0.0 mm 0.00 in0.0 mm 0.00 in0.0 mm
07:46 AM 4.3°F-15.4°C 1.9°F-16.7°C 89% Calm Calm -- 30.71 in1040.0 mb 0.00 in0.0 mm 0.00 in0.0 mm 0.00 in0.0 mm
07:44 AM 4.3°F-15.4°C 1.9°F-16.7°C 89% Calm Calm -- 30.71 in1040.0 mb 0.00 in0.0 mm 0.00 in0.0 mm 0.00 in0.0 mm
07:42 AM 4.1°F-15.5°C 1.7°F-16.8°C 89% Calm Calm -- 30.71 in1040.0 mb 0.00 in0.0 mm 0.00 in0.0 mm 0.00 in0.0 mm
07:40 AM 4.1°F-15.5°C 1.7°F-16.8°C 89% Calm Calm -- 30.71 in1040.0 mb 0.00 in0.0 mm 0.00 in0.0 mm 0.00 in0.0 mm
07:38 AM 3.9°F-15.6°C 1.5°F-16.9°C 89% Calm Calm -- 30.71 in1040.0 mb 0.00 in0.0 mm 0.00 in0.0 mm 0.00 in0.0 mm
07:36 AM 3.7°F-15.7°C 1.3°F-17.1°C 89% Calm Calm -- 30.71 in1040.0 mb 0.00 in0.0 mm 0.00 in0.0 mm 0.00 in0.0 mm
07:34 AM 3.6°F-15.8°C 0.9°F-17.3°C 88% Calm Calm -- 30.71 in1040.0 mb 0.00 in0.0 mm 0.00 in0.0 mm 0.00 in0.0 mm
07:32 AM 3.4°F-15.9°C 0.7°F-17.4°C 88% Calm Calm -- 30.71 in1040.0 mb 0.00 in0.0 mm 0.00 in0.0 mm 0.00 in0.0 mm
07:30 AM 3.2°F-16.0°C 0.5°F-17.5°C 88% Calm Calm -- 30.70 in1039.6 mb 0.00 in0.0 mm 0.00 in0.0 mm 0.00 in0.0 mm
07:28 AM 3.0°F-16.1°C 0.4°F-17.6°C 88% Calm Calm -- 30.70 in1039.6 mb 0.00 in0.0 mm 0.00 in0.0 mm 0.00 in0.0 mm
07:26 AM 2.8°F-16.2°C 0.2°F-17.7°C 88% Calm Calm -- 30.70 in1039.6 mb 0.00 in0.0 mm 0.00 in0.0 mm 0.00 in0.0 mm
07:24 AM 2.7°F-16.3°C -0.2°F-17.9°C 87% Calm Calm -- 30.71 in1040.0 mb 0.00 in0.0 mm 0.00 in0.0 mm 0.00 in0.0 mm
07:22 AM 2.5°F-16.4°C -0.4°F-18.0°C 87% Calm Calm -- 30.70 in1039.6 mb 0.00 in0.0 mm 0.00 in0.0 mm 0.00 in0.0 mm
07:20 AM 2.3°F-16.5°C -0.6°F-18.1°C 87% Calm Calm -- 30.71 in1040.0 mb 0.00 in0.0 mm 0.00 in0.0 mm 0.00 in0.0 mm
07:18 AM 2.3°F-16.5°C -0.6°F-18.1°C 87% Calm Calm -- 30.71 in1040.0 mb 0.00 in0.0 mm 0.00 in0.0 mm 0.00 in0.0 mm
07:16 AM 2.1°F-16.6°C -0.8°F-18.2°C 87% Calm Calm -- 30.71 in1040.0 mb 0.00 in0.0 mm 0.00 in0.0 mm 0.00 in0.0 mm
07:14 AM 1.9°F-16.7°C -0.9°F-18.3°C 87% Calm Calm -- 30.71 in1040.0 mb 0.00 in0.0 mm 0.00 in0.0 mm 0.00 in0.0 mm
07:12 AM 1.9°F-16.7°C -0.9°F-18.3°C 87% Calm Calm -- 30.70 in1039.6 mb 0.00 in0.0 mm 0.00 in0.0 mm 0.00 in0.0 mm
07:10 AM 2.1°F-16.6°C -0.8°F-18.2°C 87% Calm Calm -- 30.71 in1040.0 mb 0.00 in0.0 mm 0.00 in0.0 mm 0.00 in0.0 mm
07:08 AM 1.9°F-16.7°C -0.9°F-18.3°C 87% Calm Calm -- 30.71 in1040.0 mb 0.00 in0.0 mm 0.00 in0.0 mm 0.00 in0.0 mm
07:06 AM 1.8°F-16.8°C -1.1°F-18.4°C 87% Calm Calm -- 30.71 in1040.0 mb 0.00 in0.0 mm 0.00 in0.0 mm 0.00 in0.0 mm
07:04 AM 1.8°F-16.8°C -1.1°F-18.4°C 87% Calm Calm -- 30.71 in1040.0 mb 0.00 in0.0 mm 0.00 in0.0 mm 0.00 in0.0 mm
07:02 AM 1.8°F-16.8°C -1.1°F-18.4°C 87% Calm Calm -- 30.71 in1040.0 mb 0.00 in0.0 mm 0.00 in0.0 mm 0.00 in0.0 mm
07:00 AM 1.8°F-16.8°C -1.1°F-18.4°C 87% Calm Calm -- 30.71 in1040.0 mb 0.00 in0.0 mm 0.00 in0.0 mm 0.00 in0.0 mm
06:58 AM 1.8°F-16.8°C -1.1°F-18.4°C 87% Calm Calm -- 30.71 in1040.0 mb 0.00 in0.0 mm 0.00 in0.0 mm 0.00 in0.0 mm
06:56 AM 1.8°F-16.8°C -1.1°F-18.4°C 87% Calm Calm -- 30.71 in1040.0 mb 0.00 in0.0 mm 0.00 in0.0 mm 0.00 in0.0 mm
06:54 AM 1.8°F-16.8°C -1.1°F-18.4°C 87% Calm Calm -- 30.71 in1040.0 mb 0.00 in0.0 mm 0.00 in0.0 mm 0.00 in0.0 mm
06:52 AM 1.8°F-16.8°C -1.1°F-18.4°C 87% Calm Calm -- 30.71 in1040.0 mb 0.00 in0.0 mm 0.00 in0.0 mm 0.00 in0.0 mm
06:50 AM 1.8°F-16.8°C -1.1°F-18.4°C 87% Calm Calm -- 30.71 in1040.0 mb 0.00 in0.0 mm 0.00 in0.0 mm 0.00 in0.0 mm
06:48 AM 1.8°F-16.8°C -1.1°F-18.4°C 87% Calm Calm -- 30.71 in1040.0 mb 0.00 in0.0 mm 0.00 in0.0 mm 0.00 in0.0 mm
06:46 AM 1.8°F-16.8°C -1.1°F-18.4°C 87% Calm Calm -- 30.71 in1040.0 mb 0.00 in0.0 mm 0.00 in0.0 mm 0.00 in0.0 mm
06:44 AM 1.8°F-16.8°C -1.1°F-18.4°C 87% Calm Calm -- 30.70 in1039.6 mb 0.00 in0.0 mm 0.00 in0.0 mm 0.00 in0.0 mm
06:42 AM 1.8°F-16.8°C -1.1°F-18.4°C 87% Calm Calm -- 30.71 in1040.0 mb 0.00 in0.0 mm 0.00 in0.0 mm 0.00 in0.0 mm
06:40 AM 1.9°F-16.7°C -0.9°F-18.3°C 87% Calm Calm -- 30.70 in1039.6 mb 0.00 in0.0 mm 0.00 in0.0 mm 0.00 in0.0 mm
06:38 AM 1.8°F-16.8°C -1.1°F-18.4°C 87% Calm Calm -- 30.70 in1039.6 mb 0.00 in0.0 mm 0.00 in0.0 mm 0.00 in0.0 mm
06:36 AM 1.9°F-16.7°C -0.9°F-18.3°C 87% Calm Calm -- 30.71 in1040.0 mb 0.00 in0.0 mm 0.00 in0.0 mm 0.00 in0.0 mm
06:34 AM 1.9°F-16.7°C -0.9°F-18.3°C 87% Calm Calm -- 30.70 in1039.6 mb 0.00 in0.0 mm 0.00 in0.0 mm 0.00 in0.0 mm
06:32 AM 2.1°F-16.6°C -0.8°F-18.2°C 87% Calm Calm -- 30.70 in1039.6 mb 0.00 in0.0 mm 0.00 in0.0 mm 0.00 in0.0 mm
06:30 AM 2.1°F-16.6°C -0.8°F-18.2°C 87% Calm Calm -- 30.70 in1039.6 mb 0.00 in0.0 mm 0.00 in0.0 mm 0.00 in0.0 mm
06:28 AM 2.1°F-16.6°C -0.8°F-18.2°C 87% Calm Calm -- 30.70 in1039.6 mb 0.00 in0.0 mm 0.00 in0.0 mm 0.00 in0.0 mm
06:26 AM 2.1°F-16.6°C -0.8°F-18.2°C 87% Calm Calm -- 30.70 in1039.6 mb 0.00 in0.0 mm 0.00 in0.0 mm 0.00 in0.0 mm
06:24 AM 2.3°F-16.5°C -0.6°F-18.1°C 87% Calm Calm -- 30.70 in1039.6 mb 0.00 in0.0 mm 0.00 in0.0 mm 0.00 in0.0 mm
06:22 AM 2.3°F-16.5°C -0.6°F-18.1°C 87% Calm Calm -- 30.71 in1040.0 mb 0.00 in0.0 mm 0.00 in0.0 mm 0.00 in0.0 mm
06:20 AM 2.3°F-16.5°C -0.6°F-18.1°C 87% Calm Calm -- 30.70 in1039.6 mb 0.00 in0.0 mm 0.00 in0.0 mm 0.00 in0.0 mm
06:18 AM 2.3°F-16.5°C -0.6°F-18.1°C 87% Calm Calm -- 30.71 in1040.0 mb 0.00 in0.0 mm 0.00 in0.0 mm 0.00 in0.0 mm
06:16 AM 2.3°F-16.5°C -0.6°F-18.1°C 87% Calm Calm -- 30.71 in1040.0 mb 0.00 in0.0 mm 0.00 in0.0 mm 0.00 in0.0 mm
06:14 AM 2.5°F-16.4°C -0.4°F-18.0°C 87% Calm Calm -- 30.71 in1040.0 mb 0.00 in0.0 mm 0.00 in0.0 mm 0.00 in0.0 mm
06:12 AM 2.5°F-16.4°C -0.4°F-18.0°C 87% Calm Calm -- 30.71 in1040.0 mb 0.00 in0.0 mm 0.00 in0.0 mm 0.00 in0.0 mm
06:10 AM 2.5°F-16.4°C -0.4°F-18.0°C 87% Calm Calm -- 30.71 in1040.0 mb 0.00 in0.0 mm 0.00 in0.0 mm 0.00 in0.0 mm
06:08 AM 2.3°F-16.5°C -0.6°F-18.1°C 87% Calm Calm -- 30.71 in1040.0 mb 0.00 in0.0 mm 0.00 in0.0 mm 0.00 in0.0 mm
06:06 AM 2.3°F-16.5°C -0.6°F-18.1°C 87% Calm Calm -- 30.71 in1040.0 mb 0.00 in0.0 mm 0.00 in0.0 mm 0.00 in0.0 mm
06:04 AM 2.3°F-16.5°C -0.6°F-18.1°C 87% Calm Calm -- 30.71 in1040.0 mb 0.00 in0.0 mm 0.00 in0.0 mm 0.00 in0.0 mm
06:02 AM 2.1°F-16.6°C -0.8°F-18.2°C 87% Calm Calm -- 30.71 in1040.0 mb 0.00 in0.0 mm 0.00 in0.0 mm 0.00 in0.0 mm
06:00 AM 2.1°F-16.6°C -0.8°F-18.2°C 87% Calm Calm -- 30.71 in1040.0 mb 0.00 in0.0 mm 0.00 in0.0 mm 0.00 in0.0 mm
05:58 AM 2.1°F-16.6°C -0.8°F-18.2°C 87% Calm Calm -- 30.71 in1040.0 mb 0.00 in0.0 mm 0.00 in0.0 mm 0.00 in0.0 mm
05:56 AM 2.1°F-16.6°C -0.8°F-18.2°C 87% Calm Calm -- 30.71 in1040.0 mb 0.00 in0.0 mm 0.00 in0.0 mm 0.00 in0.0 mm
05:54 AM 2.1°F-16.6°C -0.8°F-18.2°C 87% Calm Calm -- 30.72 in1040.3 mb 0.00 in0.0 mm 0.00 in0.0 mm 0.00 in0.0 mm
05:52 AM 2.1°F-16.6°C -0.8°F-18.2°C 87% Calm Calm -- 30.71 in1040.0 mb 0.00 in0.0 mm 0.00 in0.0 mm 0.00 in0.0 mm
05:50 AM 2.1°F-16.6°C -0.8°F-18.2°C 87% Calm Calm -- 30.71 in1040.0 mb 0.00 in0.0 mm 0.00 in0.0 mm 0.00 in0.0 mm
05:48 AM 1.9°F-16.7°C -0.9°F-18.3°C 87% Calm Calm -- 30.72 in1040.3 mb 0.00 in0.0 mm 0.00 in0.0 mm 0.00 in0.0 mm
05:46 AM 1.8°F-16.8°C -1.1°F-18.4°C 87% Calm Calm -- 30.72 in1040.3 mb 0.00 in0.0 mm 0.00 in0.0 mm 0.00 in0.0 mm
05:44 AM 1.8°F-16.8°C -1.1°F-18.4°C 87% Calm Calm -- 30.72 in1040.3 mb 0.00 in0.0 mm 0.00 in0.0 mm 0.00 in0.0 mm
05:42 AM 1.8°F-16.8°C -1.1°F-18.4°C 87% Calm Calm -- 30.72 in1040.3 mb 0.00 in0.0 mm 0.00 in0.0 mm 0.00 in0.0 mm
05:40 AM 1.8°F-16.8°C -1.1°F-18.4°C 87% Calm Calm -- 30.71 in1040.0 mb 0.00 in0.0 mm 0.00 in0.0 mm 0.00 in0.0 mm
05:38 AM 1.8°F-16.8°C -1.1°F-18.4°C 87% Calm Calm -- 30.72 in1040.3 mb 0.00 in0.0 mm 0.00 in0.0 mm 0.00 in0.0 mm
05:36 AM 1.8°F-16.8°C -1.1°F-18.4°C 87% Calm Calm -- 30.72 in1040.3 mb 0.00 in0.0 mm 0.00 in0.0 mm 0.00 in0.0 mm
05:34 AM 1.9°F-16.7°C -0.9°F-18.3°C 87% Calm Calm -- 30.72 in1040.3 mb 0.00 in0.0 mm 0.00 in0.0 mm 0.00 in0.0 mm
05:32 AM 2.1°F-16.6°C -0.8°F-18.2°C 87% Calm Calm -- 30.72 in1040.3 mb 0.00 in0.0 mm 0.00 in0.0 mm 0.00 in0.0 mm
05:30 AM 2.1°F-16.6°C -0.8°F-18.2°C 87% Calm Calm -- 30.72 in1040.3 mb 0.00 in0.0 mm 0.00 in0.0 mm 0.00 in0.0 mm
05:28 AM 1.9°F-16.7°C -0.9°F-18.3°C 87% Calm Calm -- 30.72 in1040.3 mb 0.00 in0.0 mm 0.00 in0.0 mm 0.00 in0.0 mm
05:26 AM 2.1°F-16.6°C -0.8°F-18.2°C 87% Calm Calm -- 30.72 in1040.3 mb 0.00 in0.0 mm 0.00 in0.0 mm 0.00 in0.0 mm
05:24 AM 1.9°F-16.7°C -0.9°F-18.3°C 87% Calm Calm -- 30.72 in1040.3 mb 0.00 in0.0 mm 0.00 in0.0 mm 0.00 in0.0 mm
05:22 AM 1.9°F-16.7°C -0.9°F-18.3°C 87% Calm Calm -- 30.72 in1040.3 mb 0.00 in0.0 mm 0.00 in0.0 mm 0.00 in0.0 mm
05:20 AM 2.1°F-16.6°C -0.8°F-18.2°C 87% Calm Calm -- 30.72 in1040.3 mb 0.00 in0.0 mm 0.00 in0.0 mm 0.00 in0.0 mm
05:18 AM 2.1°F-16.6°C -0.8°F-18.2°C 87% Calm Calm -- 30.71 in1040.0 mb 0.00 in0.0 mm 0.00 in0.0 mm 0.00 in0.0 mm
05:16 AM 1.9°F-16.7°C -0.9°F-18.3°C 87% Calm Calm -- 30.72 in1040.3 mb 0.00 in0.0 mm 0.00 in0.0 mm 0.00 in0.0 mm
05:14 AM 2.1°F-16.6°C -0.8°F-18.2°C 87% Calm Calm -- 30.71 in1040.0 mb 0.00 in0.0 mm 0.00 in0.0 mm 0.00 in0.0 mm
05:12 AM 1.9°F-16.7°C -0.9°F-18.3°C 87% Calm Calm -- 30.72 in1040.3 mb 0.00 in0.0 mm 0.00 in0.0 mm 0.00 in0.0 mm
05:10 AM 1.9°F-16.7°C -0.9°F-18.3°C 87% Calm Calm -- 30.72 in1040.3 mb 0.00 in0.0 mm 0.00 in0.0 mm 0.00 in0.0 mm
05:08 AM 1.8°F-16.8°C -1.4°F-18.6°C 86% Calm Calm -- 30.72 in1040.3 mb 0.00 in0.0 mm 0.00 in0.0 mm 0.00 in0.0 mm
05:06 AM 1.8°F-16.8°C -1.4°F-18.6°C 86% Calm Calm -- 30.72 in1040.3 mb 0.00 in0.0 mm 0.00 in0.0 mm 0.00 in0.0 mm
05:04 AM 1.8°F-16.8°C -1.4°F-18.6°C 86% Calm Calm -- 30.72 in1040.3 mb 0.00 in0.0 mm 0.00 in0.0 mm 0.00 in0.0 mm
05:02 AM 1.8°F-16.8°C -1.4°F-18.6°C 86% Calm Calm -- 30.72 in1040.3 mb 0.00 in0.0 mm 0.00 in0.0 mm 0.00 in0.0 mm
05:00 AM 1.8°F-16.8°C -1.4°F-18.6°C 86% Calm Calm -- 30.72 in1040.3 mb 0.00 in0.0 mm 0.00 in0.0 mm 0.00 in0.0 mm
04:58 AM 1.8°F-16.8°C -1.4°F-18.6°C 86% Calm Calm -- 30.72 in1040.3 mb 0.00 in0.0 mm 0.00 in0.0 mm 0.00 in0.0 mm
04:56 AM 1.6°F-16.9°C -1.5°F-18.6°C 86% Calm Calm -- 30.72 in1040.3 mb 0.00 in0.0 mm 0.00 in0.0 mm 0.00 in0.0 mm
04:54 AM 1.6°F-16.9°C -1.5°F-18.6°C 86% Calm Calm -- 30.72 in1040.3 mb 0.00 in0.0 mm 0.00 in0.0 mm 0.00 in0.0 mm
04:52 AM 1.6°F-16.9°C -1.5°F-18.6°C 86% Calm Calm -- 30.72 in1040.3 mb 0.00 in0.0 mm 0.00 in0.0 mm 0.00 in0.0 mm
04:50 AM 1.6°F-16.9°C -1.5°F-18.6°C 86% Calm Calm -- 30.71 in1040.0 mb 0.00 in0.0 mm 0.00 in0.0 mm 0.00 in0.0 mm
04:48 AM 1.6°F-16.9°C -1.5°F-18.6°C 86% Calm Calm -- 30.71 in1040.0 mb 0.00 in0.0 mm 0.00 in0.0 mm 0.00 in0.0 mm
04:46 AM 1.4°F-17.0°C -1.9°F-18.8°C 85% Calm Calm -- 30.72 in1040.3 mb 0.00 in0.0 mm 0.00 in0.0 mm 0.00 in0.0 mm
04:44 AM 1.6°F-16.9°C -1.8°F-18.8°C 85% Calm Calm -- 30.71 in1040.0 mb 0.00 in0.0 mm 0.00 in0.0 mm 0.00 in0.0 mm
04:42 AM 1.6°F-16.9°C -1.8°F-18.8°C 85% Calm Calm -- 30.71 in1040.0 mb 0.00 in0.0 mm 0.00 in0.0 mm 0.00 in0.0 mm
04:40 AM 1.6°F-16.9°C -1.8°F-18.8°C 85% Calm Calm -- 30.71 in1040.0 mb 0.00 in0.0 mm 0.00 in0.0 mm 0.00 in0.0 mm
04:38 AM 1.8°F-16.8°C -1.6°F-18.7°C 85% Calm Calm -- 30.71 in1040.0 mb 0.00 in0.0 mm 0.00 in0.0 mm 0.00 in0.0 mm
04:36 AM 1.8°F-16.8°C -1.6°F-18.7°C 85% Calm Calm -- 30.71 in1040.0 mb 0.00 in0.0 mm 0.00 in0.0 mm 0.00 in0.0 mm
04:34 AM 2.1°F-16.6°C -1.2°F-18.4°C 85% Calm Calm -- 30.71 in1040.0 mb 0.00 in0.0 mm 0.00 in0.0 mm 0.00 in0.0 mm
04:32 AM 2.1°F-16.6°C -1.2°F-18.4°C 85% Calm Calm -- 30.71 in1040.0 mb 0.00 in0.0 mm 0.00 in0.0 mm 0.00 in0.0 mm
04:30 AM 2.3°F-16.5°C -1.1°F-18.4°C 85% Calm Calm -- 30.71 in1040.0 mb 0.00 in0.0 mm 0.00 in0.0 mm 0.00 in0.0 mm
04:28 AM 2.5°F-16.4°C -0.9°F-18.3°C 85% Calm Calm -- 30.71 in1040.0 mb 0.00 in0.0 mm 0.00 in0.0 mm 0.00 in0.0 mm
04:26 AM 2.5°F-16.4°C -0.9°F-18.3°C 85% Calm Calm -- 30.71 in1040.0 mb 0.00 in0.0 mm 0.00 in0.0 mm 0.00 in0.0 mm
04:24 AM 2.7°F-16.3°C -0.7°F-18.2°C 85% Calm Calm -- 30.71 in1040.0 mb 0.00 in0.0 mm 0.00 in0.0 mm 0.00 in0.0 mm
04:22 AM 2.8°F-16.2°C -0.5°F-18.1°C 85% Calm Calm -- 30.71 in1040.0 mb 0.00 in0.0 mm 0.00 in0.0 mm 0.00 in0.0 mm
04:20 AM 3.0°F-16.1°C -0.4°F-18.0°C 85% Calm Calm -- 30.71 in1040.0 mb 0.00 in0.0 mm 0.00 in0.0 mm 0.00 in0.0 mm
04:18 AM 3.0°F-16.1°C -0.4°F-18.0°C 85% Calm Calm -- 30.72 in1040.3 mb 0.00 in0.0 mm 0.00 in0.0 mm 0.00 in0.0 mm
04:16 AM 3.2°F-16.0°C -0.2°F-17.9°C 85% Calm Calm -- 30.71 in1040.0 mb 0.00 in0.0 mm 0.00 in0.0 mm 0.00 in0.0 mm
04:14 AM 3.4°F-15.9°C 0.0°F-17.8°C 85% Calm Calm -- 30.71 in1040.0 mb 0.00 in0.0 mm 0.00 in0.0 mm 0.00 in0.0 mm
04:12 AM 3.7°F-15.7°C 0.3°F-17.6°C 85% Calm Calm -- 30.71 in1040.0 mb 0.00 in0.0 mm 0.00 in0.0 mm 0.00 in0.0 mm
04:10 AM 3.9°F-15.6°C 0.5°F-17.5°C 85% Calm Calm -- 30.71 in1040.0 mb 0.00 in0.0 mm 0.00 in0.0 mm 0.00 in0.0 mm
04:08 AM 4.1°F-15.5°C 0.7°F-17.4°C 85% Calm Calm -- 30.71 in1040.0 mb 0.00 in0.0 mm 0.00 in0.0 mm 0.00 in0.0 mm
04:06 AM 4.5°F-15.3°C 1.0°F-17.2°C 85% Calm Calm -- 30.71 in1040.0 mb 0.00 in0.0 mm 0.00 in0.0 mm 0.00 in0.0 mm
04:04 AM 4.6°F-15.2°C 1.2°F-17.1°C 85% Calm Calm -- 30.71 in1040.0 mb 0.00 in0.0 mm 0.00 in0.0 mm 0.00 in0.0 mm
04:02 AM 4.8°F-15.1°C 1.4°F-17.0°C 85% Calm Calm -- 30.72 in1040.3 mb 0.00 in0.0 mm 0.00 in0.0 mm 0.00 in0.0 mm
04:00 AM 5.0°F-15.0°C 1.6°F-16.9°C 85% Calm Calm -- 30.72 in1040.3 mb 0.00 in0.0 mm 0.00 in0.0 mm 0.00 in0.0 mm
03:58 AM 5.2°F-14.9°C 1.7°F-16.8°C 85% Calm Calm -- 30.71 in1040.0 mb 0.00 in0.0 mm 0.00 in0.0 mm 0.00 in0.0 mm
03:56 AM 5.4°F-14.8°C 1.9°F-16.7°C 85% Calm Calm -- 30.71 in1040.0 mb 0.00 in0.0 mm 0.00 in0.0 mm 0.00 in0.0 mm
03:54 AM 5.5°F-14.7°C 2.1°F-16.6°C 85% Calm Calm -- 30.71 in1040.0 mb 0.00 in0.0 mm 0.00 in0.0 mm 0.00 in0.0 mm
03:52 AM 5.7°F-14.6°C 2.3°F-16.5°C 85% Calm Calm -- 30.71 in1040.0 mb 0.00 in0.0 mm 0.00 in0.0 mm 0.00 in0.0 mm
03:50 AM 5.9°F-14.5°C 2.5°F-16.4°C 85% Calm Calm -- 30.71 in1040.0 mb 0.00 in0.0 mm 0.00 in0.0 mm 0.00 in0.0 mm
03:48 AM 6.1°F-14.4°C 2.9°F-16.2°C 86% Calm Calm -- 30.70 in1039.6 mb 0.00 in0.0 mm 0.00 in0.0 mm 0.00 in0.0 mm
03:46 AM 6.3°F-14.3°C 3.1°F-16.1°C 86% Calm Calm -- 30.70 in1039.6 mb 0.00 in0.0 mm 0.00 in0.0 mm 0.00 in0.0 mm
03:44 AM 6.4°F-14.2°C 3.2°F-16.0°C 86% Calm Calm -- 30.70 in1039.6 mb 0.00 in0.0 mm 0.00 in0.0 mm 0.00 in0.0 mm
03:42 AM 6.6°F-14.1°C 3.4°F-15.9°C 86% Calm Calm -- 30.70 in1039.6 mb 0.00 in0.0 mm 0.00 in0.0 mm 0.00 in0.0 mm
03:40 AM 6.8°F-14.0°C 3.6°F-15.8°C 86% Calm Calm -- 30.70 in1039.6 mb 0.00 in0.0 mm 0.00 in0.0 mm 0.00 in0.0 mm
03:38 AM 6.8°F-14.0°C 3.6°F-15.8°C 86% Calm Calm -- 30.70 in1039.6 mb 0.00 in0.0 mm 0.00 in0.0 mm 0.00 in0.0 mm
03:36 AM 7.0°F-13.9°C 3.8°F-15.7°C 86% Calm Calm -- 30.71 in1040.0 mb 0.00 in0.0 mm 0.00 in0.0 mm 0.00 in0.0 mm
03:34 AM 7.0°F-13.9°C 3.8°F-15.7°C 86% Calm Calm -- 30.71 in1040.0 mb 0.00 in0.0 mm 0.00 in0.0 mm 0.00 in0.0 mm
03:32 AM 7.2°F-13.8°C 3.9°F-15.6°C 86% Calm Calm -- 30.71 in1040.0 mb 0.00 in0.0 mm 0.00 in0.0 mm 0.00 in0.0 mm
03:30 AM 7.2°F-13.8°C 3.7°F-15.7°C 85% Calm Calm -- 30.71 in1040.0 mb 0.00 in0.0 mm 0.00 in0.0 mm 0.00 in0.0 mm
03:28 AM 7.2°F-13.8°C 3.7°F-15.7°C 85% Calm Calm -- 30.71 in1040.0 mb 0.00 in0.0 mm 0.00 in0.0 mm 0.00 in0.0 mm
03:26 AM 7.2°F-13.8°C 3.7°F-15.7°C 85% Calm Calm -- 30.71 in1040.0 mb 0.00 in0.0 mm 0.00 in0.0 mm 0.00 in0.0 mm
03:24 AM 7.2°F-13.8°C 3.7°F-15.7°C 85% Calm Calm -- 30.71 in1040.0 mb 0.00 in0.0 mm 0.00 in0.0 mm 0.00 in0.0 mm
03:22 AM 7.2°F-13.8°C 3.4°F-15.9°C 84% Calm Calm -- 30.71 in1040.0 mb 0.00 in0.0 mm 0.00 in0.0 mm 0.00 in0.0 mm
03:20 AM 7.0°F-13.9°C 3.3°F-15.9°C 84% Calm Calm -- 30.71 in1040.0 mb 0.00 in0.0 mm 0.00 in0.0 mm 0.00 in0.0 mm
03:18 AM 7.0°F-13.9°C 3.3°F-15.9°C 84% Calm Calm -- 30.71 in1040.0 mb 0.00 in0.0 mm 0.00 in0.0 mm 0.00 in0.0 mm
03:16 AM 7.0°F-13.9°C 3.3°F-15.9°C 84% Calm Calm -- 30.71 in1040.0 mb 0.00 in0.0 mm 0.00 in0.0 mm 0.00 in0.0 mm
03:14 AM 7.0°F-13.9°C 3.0°F-16.1°C 83% Calm Calm -- 30.71 in1040.0 mb 0.00 in0.0 mm 0.00 in0.0 mm 0.00 in0.0 mm
03:12 AM 6.8°F-14.0°C 2.8°F-16.2°C 83% Calm Calm -- 30.70 in1039.6 mb 0.00 in0.0 mm 0.00 in0.0 mm 0.00 in0.0 mm
03:10 AM 7.0°F-13.9°C 3.0°F-16.1°C 83% Calm Calm -- 30.70 in1039.6 mb 0.00 in0.0 mm 0.00 in0.0 mm 0.00 in0.0 mm
03:08 AM 7.0°F-13.9°C 3.0°F-16.1°C 83% Calm Calm -- 30.70 in1039.6 mb 0.00 in0.0 mm 0.00 in0.0 mm 0.00 in0.0 mm
03:06 AM 7.0°F-13.9°C 3.0°F-16.1°C 83% Calm Calm -- 30.70 in1039.6 mb 0.00 in0.0 mm 0.00 in0.0 mm 0.00 in0.0 mm
03:04 AM 7.2°F-13.8°C 3.2°F-16.0°C 83% Calm Calm -- 30.70 in1039.6 mb 0.00 in0.0 mm 0.00 in0.0 mm 0.00 in0.0 mm
03:02 AM 7.2°F-13.8°C 3.2°F-16.0°C 83% Calm Calm -- 30.70 in1039.6 mb 0.00 in0.0 mm 0.00 in0.0 mm 0.00 in0.0 mm
03:00 AM 7.3°F-13.7°C 3.3°F-15.9°C 83% Calm Calm -- 30.69 in1039.3 mb 0.00 in0.0 mm 0.00 in0.0 mm 0.00 in0.0 mm
02:58 AM 7.3°F-13.7°C 3.3°F-15.9°C 83% Calm Calm -- 30.70 in1039.6 mb 0.00 in0.0 mm 0.00 in0.0 mm 0.00 in0.0 mm
02:56 AM 7.3°F-13.7°C 3.1°F-16.1°C 82% Calm Calm -- 30.70 in1039.6 mb 0.00 in0.0 mm 0.00 in0.0 mm 0.00 in0.0 mm
02:54 AM 7.5°F-13.6°C 3.3°F-15.9°C 82% Calm Calm -- 30.70 in1039.6 mb 0.00 in0.0 mm 0.00 in0.0 mm 0.00 in0.0 mm
02:52 AM 7.5°F-13.6°C 3.3°F-15.9°C 82% Calm Calm -- 30.70 in1039.6 mb 0.00 in0.0 mm 0.00 in0.0 mm 0.00 in0.0 mm
02:50 AM 7.5°F-13.6°C 3.3°F-15.9°C 82% Calm Calm -- 30.70 in1039.6 mb 0.00 in0.0 mm 0.00 in0.0 mm 0.00 in0.0 mm
02:48 AM 7.7°F-13.5°C 3.4°F-15.9°C 82% Calm Calm -- 30.71 in1040.0 mb 0.00 in0.0 mm 0.00 in0.0 mm 0.00 in0.0 mm
02:46 AM 7.9°F-13.4°C 3.6°F-15.8°C 82% Calm Calm -- 30.70 in1039.6 mb 0.00 in0.0 mm 0.00 in0.0 mm 0.00 in0.0 mm
02:44 AM 7.9°F-13.4°C 3.6°F-15.8°C 82% Calm Calm -- 30.70 in1039.6 mb 0.00 in0.0 mm 0.00 in0.0 mm 0.00 in0.0 mm
02:42 AM 8.1°F-13.3°C 3.8°F-15.7°C 82% Calm Calm -- 30.70 in1039.6 mb 0.00 in0.0 mm 0.00 in0.0 mm 0.00 in0.0 mm
02:40 AM 8.2°F-13.2°C 4.0°F-15.6°C 82% Calm Calm -- 30.70 in1039.6 mb 0.00 in0.0 mm 0.00 in0.0 mm 0.00 in0.0 mm
02:38 AM 8.2°F-13.2°C 3.7°F-15.7°C 81% Calm Calm -- 30.71 in1040.0 mb 0.00 in0.0 mm 0.00 in0.0 mm 0.00 in0.0 mm
02:36 AM 8.4°F-13.1°C 3.9°F-15.6°C 81% Calm Calm -- 30.71 in1040.0 mb 0.00 in0.0 mm 0.00 in0.0 mm 0.00 in0.0 mm
02:34 AM 8.6°F-13.0°C 4.1°F-15.5°C 81% Calm Calm -- 30.71 in1040.0 mb 0.00 in0.0 mm 0.00 in0.0 mm 0.00 in0.0 mm
02:32 AM 8.8°F-12.9°C 4.2°F-15.4°C 81% Calm Calm -- 30.71 in1040.0 mb 0.00 in0.0 mm 0.00 in0.0 mm 0.00 in0.0 mm
02:30 AM 9.3°F-12.6°C 4.8°F-15.1°C 81% Calm Calm -- 30.71 in1040.0 mb 0.00 in0.0 mm 0.00 in0.0 mm 0.00 in0.0 mm
02:28 AM 9.3°F-12.6°C 4.8°F-15.1°C 81% Calm Calm -- 30.71 in1040.0 mb 0.00 in0.0 mm 0.00 in0.0 mm 0.00 in0.0 mm
02:26 AM 9.5°F-12.5°C 4.9°F-15.1°C 81% Calm Calm -- 30.71 in1040.0 mb 0.00 in0.0 mm 0.00 in0.0 mm 0.00 in0.0 mm
02:24 AM 9.9°F-12.3°C 5.3°F-14.8°C 81% Calm Calm -- 30.71 in1040.0 mb 0.00 in0.0 mm 0.00 in0.0 mm 0.00 in0.0 mm
02:22 AM 10.2°F-12.1°C 5.6°F-14.7°C 81% Calm Calm -- 30.71 in1040.0 mb 0.00 in0.0 mm 0.00 in0.0 mm 0.00 in0.0 mm
02:20 AM 10.6°F-11.9°C 6.0°F-14.4°C 81% Calm Calm -- 30.71 in1040.0 mb 0.00 in0.0 mm 0.00 in0.0 mm 0.00 in0.0 mm
02:18 AM 10.8°F-11.8°C 6.2°F-14.3°C 81% Calm Calm 2.2 mph3.5 kmh 30.71 in1040.0 mb 0.00 in0.0 mm 0.00 in0.0 mm 0.00 in0.0 mm
02:16 AM 11.1°F-11.6°C 6.5°F-14.2°C 81% Calm Calm 2.2 mph3.5 kmh 30.71 in1040.0 mb 0.00 in0.0 mm 0.00 in0.0 mm 0.00 in0.0 mm
02:14 AM 11.3°F-11.5°C 6.7°F-14.1°C 81% Calm Calm 2.2 mph3.5 kmh 30.71 in1040.0 mb 0.00 in0.0 mm 0.00 in0.0 mm 0.00 in0.0 mm
02:12 AM 11.7°F-11.3°C 7.3°F-13.7°C 82% Calm Calm 2.2 mph3.5 kmh 30.71 in1040.0 mb 0.00 in0.0 mm 0.00 in0.0 mm 0.00 in0.0 mm
02:10 AM 11.7°F-11.3°C 7.3°F-13.7°C 82% Calm Calm 3.1 mph5.0 kmh 30.71 in1040.0 mb 0.00 in0.0 mm 0.00 in0.0 mm 0.00 in0.0 mm
02:08 AM 11.8°F-11.2°C 7.5°F-13.6°C 82% 0.7 mph NW1.1 kmh NW 3.1 mph5.0 kmh 30.71 in1040.0 mb 0.00 in0.0 mm 0.00 in0.0 mm 0.00 in0.0 mm
02:06 AM 11.8°F-11.2°C 7.2°F-13.8°C 81% Calm Calm 3.1 mph5.0 kmh 30.71 in1040.0 mb 0.00 in0.0 mm 0.00 in0.0 mm 0.00 in0.0 mm
02:04 AM 12.0°F-11.1°C 7.7°F-13.5°C 82% Calm Calm 3.1 mph5.0 kmh 30.71 in1040.0 mb 0.00 in0.0 mm 0.00 in0.0 mm 0.00 in0.0 mm
02:02 AM 12.0°F-11.1°C 7.7°F-13.5°C 82% Calm Calm 3.8 mph6.1 kmh 30.71 in1040.0 mb 0.00 in0.0 mm 0.00 in0.0 mm 0.00 in0.0 mm
02:00 AM 12.0°F-11.1°C 7.7°F-13.5°C 82% 0.7 mph W1.1 kmh W 4.5 mph7.2 kmh 30.71 in1040.0 mb 0.00 in0.0 mm 0.00 in0.0 mm 0.00 in0.0 mm
01:58 AM 12.0°F-11.1°C 7.7°F-13.5°C 82% 0.7 mph W1.1 kmh W 4.5 mph7.2 kmh 30.71 in1040.0 mb 0.00 in0.0 mm 0.00 in0.0 mm 0.00 in0.0 mm
01:56 AM 12.0°F-11.1°C 7.7°F-13.5°C 82% Calm Calm 4.5 mph7.2 kmh 30.71 in1040.0 mb 0.00 in0.0 mm 0.00 in0.0 mm 0.00 in0.0 mm
01:54 AM 12.2°F-11.0°C 7.8°F-13.4°C 82% Calm Calm 4.5 mph7.2 kmh 30.71 in1040.0 mb 0.00 in0.0 mm 0.00 in0.0 mm 0.00 in0.0 mm
01:52 AM 12.0°F-11.1°C 7.7°F-13.5°C 82% 0.7 mph W1.1 kmh W 4.5 mph7.2 kmh 30.71 in1040.0 mb 0.00 in0.0 mm 0.00 in0.0 mm 0.00 in0.0 mm
01:50 AM 12.0°F-11.1°C 7.7°F-13.5°C 82% 0.7 mph WNW1.1 kmh WNW 4.5 mph7.2 kmh 30.71 in1040.0 mb 0.00 in0.0 mm 0.00 in0.0 mm 0.00 in0.0 mm
01:48 AM 12.0°F-11.1°C 7.7°F-13.5°C 82% Calm Calm 3.8 mph6.1 kmh 30.71 in1040.0 mb 0.00 in0.0 mm 0.00 in0.0 mm 0.00 in0.0 mm
01:46 AM 11.8°F-11.2°C 7.5°F-13.6°C 82% 0.7 mph NW1.1 kmh NW 3.8 mph6.1 kmh 30.71 in1040.0 mb 0.00 in0.0 mm 0.00 in0.0 mm 0.00 in0.0 mm
01:44 AM 11.8°F-11.2°C 7.2°F-13.8°C 81% 1.6 mph NW2.6 kmh NW 3.8 mph6.1 kmh 30.71 in1040.0 mb 0.00 in0.0 mm 0.00 in0.0 mm 0.00 in0.0 mm
01:42 AM 11.8°F-11.2°C 7.2°F-13.8°C 81% Calm Calm 2.2 mph3.5 kmh 30.71 in1040.0 mb 0.00 in0.0 mm 0.00 in0.0 mm 0.00 in0.0 mm
01:40 AM 12.0°F-11.1°C 7.4°F-13.7°C 81% Calm Calm 2.2 mph3.5 kmh 30.71 in1040.0 mb 0.00 in0.0 mm 0.00 in0.0 mm 0.00 in0.0 mm
01:38 AM 12.2°F-11.0°C 7.6°F-13.6°C 81% Calm Calm 2.2 mph3.5 kmh 30.71 in1040.0 mb 0.00 in0.0 mm 0.00 in0.0 mm 0.00 in0.0 mm
01:36 AM 12.2°F-11.0°C 7.6°F-13.6°C 81% Calm Calm 2.2 mph3.5 kmh 30.71 in1040.0 mb 0.00 in0.0 mm 0.00 in0.0 mm 0.00 in0.0 mm
01:34 AM 12.4°F-10.9°C 7.7°F-13.5°C 81% Calm Calm 3.1 mph5.0 kmh 30.71 in1040.0 mb 0.00 in0.0 mm 0.00 in0.0 mm 0.00 in0.0 mm
01:32 AM 12.4°F-10.9°C 7.7°F-13.5°C 81% Calm Calm 3.1 mph5.0 kmh 30.72 in1040.3 mb 0.00 in0.0 mm 0.00 in0.0 mm 0.00 in0.0 mm
01:30 AM 12.6°F-10.8°C 8.2°F-13.2°C 82% 0.7 mph WNW1.1 kmh WNW 3.1 mph5.0 kmh 30.71 in1040.0 mb 0.00 in0.0 mm 0.00 in0.0 mm 0.00 in0.0 mm
01:28 AM 12.6°F-10.8°C 8.2°F-13.2°C 82% Calm Calm 4.5 mph7.2 kmh 30.71 in1040.0 mb 0.00 in0.0 mm 0.00 in0.0 mm 0.00 in0.0 mm
01:26 AM 12.6°F-10.8°C 8.2°F-13.2°C 82% Calm Calm 4.5 mph7.2 kmh 30.72 in1040.3 mb 0.00 in0.0 mm 0.00 in0.0 mm 0.00 in0.0 mm
01:24 AM 12.6°F-10.8°C 8.2°F-13.2°C 82% 0.7 mph WNW1.1 kmh WNW 4.5 mph7.2 kmh 30.71 in1040.0 mb 0.00 in0.0 mm 0.00 in0.0 mm 0.00 in0.0 mm
01:22 AM 12.6°F-10.8°C 8.2°F-13.2°C 82% 0.7 mph WNW1.1 kmh WNW 4.5 mph7.2 kmh 30.71 in1040.0 mb 0.00 in0.0 mm 0.00 in0.0 mm 0.00 in0.0 mm
01:20 AM 12.4°F-10.9°C 8.0°F-13.3°C 82% 1.6 mph WNW2.6 kmh WNW 4.5 mph7.2 kmh 30.71 in1040.0 mb 0.00 in0.0 mm 0.00 in0.0 mm 0.00 in0.0 mm
01:18 AM 12.4°F-10.9°C 8.0°F-13.3°C 82% 0.7 mph WNW1.1 kmh WNW 4.5 mph7.2 kmh 30.71 in1040.0 mb 0.00 in0.0 mm 0.00 in0.0 mm 0.00 in0.0 mm
01:16 AM 12.2°F-11.0°C 7.8°F-13.4°C 82% 0.7 mph WNW1.1 kmh WNW 3.8 mph6.1 kmh 30.72 in1040.3 mb 0.00 in0.0 mm 0.00 in0.0 mm 0.00 in0.0 mm
01:14 AM 12.0°F-11.1°C 7.7°F-13.5°C 82% 1.6 mph NW2.6 kmh NW 3.8 mph6.1 kmh 30.72 in1040.3 mb 0.00 in0.0 mm 0.00 in0.0 mm 0.00 in0.0 mm
01:12 AM 12.0°F-11.1°C 7.4°F-13.7°C 81% 1.6 mph W2.6 kmh W 3.1 mph5.0 kmh 30.72 in1040.3 mb 0.00 in0.0 mm 0.00 in0.0 mm 0.00 in0.0 mm
01:10 AM 11.8°F-11.2°C 7.2°F-13.8°C 81% 0.7 mph WSW1.1 kmh WSW 3.1 mph5.0 kmh 30.72 in1040.3 mb 0.00 in0.0 mm 0.00 in0.0 mm 0.00 in0.0 mm
01:08 AM 11.8°F-11.2°C 7.2°F-13.8°C 81% 0.7 mph SW1.1 kmh SW 3.1 mph5.0 kmh 30.71 in1040.0 mb 0.00 in0.0 mm 0.00 in0.0 mm 0.00 in0.0 mm
01:06 AM 11.8°F-11.2°C 7.2°F-13.8°C 81% Calm Calm 3.1 mph5.0 kmh 30.72 in1040.3 mb 0.00 in0.0 mm 0.00 in0.0 mm 0.00 in0.0 mm
01:04 AM 11.8°F-11.2°C 7.2°F-13.8°C 81% 0.7 mph WSW1.1 kmh WSW 3.1 mph5.0 kmh 30.72 in1040.3 mb 0.00 in0.0 mm 0.00 in0.0 mm 0.00 in0.0 mm
01:02 AM 11.8°F-11.2°C 7.2°F-13.8°C 81% Calm Calm 3.8 mph6.1 kmh 30.71 in1040.0 mb 0.00 in0.0 mm 0.00 in0.0 mm 0.00 in0.0 mm
01:00 AM 11.8°F-11.2°C 7.2°F-13.8°C 81% Calm Calm 3.8 mph6.1 kmh 30.72 in1040.3 mb 0.00 in0.0 mm 0.00 in0.0 mm 0.00 in0.0 mm
12:58 AM 11.8°F-11.2°C 7.2°F-13.8°C 81% Calm Calm 3.8 mph6.1 kmh 30.72 in1040.3 mb 0.00 in0.0 mm 0.00 in0.0 mm 0.00 in0.0 mm
12:56 AM 11.8°F-11.2°C 7.2°F-13.8°C 81% 0.7 mph NW1.1 kmh NW 3.8 mph6.1 kmh 30.72 in1040.3 mb 0.00 in0.0 mm 0.00 in0.0 mm 0.00 in0.0 mm
12:54 AM 11.8°F-11.2°C 7.2°F-13.8°C 81% 0.7 mph NW1.1 kmh NW 3.8 mph6.1 kmh 30.72 in1040.3 mb 0.00 in0.0 mm 0.00 in0.0 mm 0.00 in0.0 mm
12:52 AM 11.8°F-11.2°C 7.2°F-13.8°C 81% 0.7 mph NW1.1 kmh NW 3.8 mph6.1 kmh 30.71 in1040.0 mb 0.00 in0.0 mm 0.00 in0.0 mm 0.00 in0.0 mm
12:50 AM 11.8°F-11.2°C 7.2°F-13.8°C 81% 0.7 mph WNW1.1 kmh WNW 3.8 mph6.1 kmh 30.71 in1040.0 mb 0.00 in0.0 mm 0.00 in0.0 mm 0.00 in0.0 mm
12:48 AM 11.8°F-11.2°C 7.2°F-13.8°C 81% 0.7 mph WNW1.1 kmh WNW 3.8 mph6.1 kmh 30.71 in1040.0 mb 0.00 in0.0 mm 0.00 in0.0 mm 0.00 in0.0 mm
12:46 AM 11.8°F-11.2°C 7.2°F-13.8°C 81% Calm Calm 3.8 mph6.1 kmh 30.71 in1040.0 mb 0.00 in0.0 mm 0.00 in0.0 mm 0.00 in0.0 mm
12:44 AM 11.8°F-11.2°C 7.2°F-13.8°C 81% 0.7 mph WNW1.1 kmh WNW 3.8 mph6.1 kmh 30.71 in1040.0 mb 0.00 in0.0 mm 0.00 in0.0 mm 0.00 in0.0 mm
12:42 AM 11.8°F-11.2°C 7.2°F-13.8°C 81% 1.6 mph WNW2.6 kmh WNW 4.5 mph7.2 kmh 30.71 in1040.0 mb 0.00 in0.0 mm 0.00 in0.0 mm 0.00 in0.0 mm
12:40 AM 11.7°F-11.3°C 7.0°F-13.9°C 81% 0.7 mph WNW1.1 kmh WNW 4.5 mph7.2 kmh 30.71 in1040.0 mb 0.00 in0.0 mm 0.00 in0.0 mm 0.00 in0.0 mm
12:38 AM 11.7°F-11.3°C 7.0°F-13.9°C 81% 1.6 mph WNW2.6 kmh WNW 4.5 mph7.2 kmh 30.71 in1040.0 mb 0.00 in0.0 mm 0.00 in0.0 mm 0.00 in0.0 mm
12:36 AM 11.7°F-11.3°C 7.0°F-13.9°C 81% 2.2 mph WNW3.5 kmh WNW 4.5 mph7.2 kmh 30.71 in1040.0 mb 0.00 in0.0 mm 0.00 in0.0 mm 0.00 in0.0 mm
12:34 AM 11.5°F-11.4°C 6.9°F-13.9°C 81% Calm Calm 4.5 mph7.2 kmh 30.71 in1040.0 mb 0.00 in0.0 mm 0.00 in0.0 mm 0.00 in0.0 mm
12:32 AM 11.7°F-11.3°C 7.0°F-13.9°C 81% Calm Calm 3.1 mph5.0 kmh 30.71 in1040.0 mb 0.00 in0.0 mm 0.00 in0.0 mm 0.00 in0.0 mm
12:30 AM 12.0°F-11.1°C 7.4°F-13.7°C 81% Calm Calm 3.1 mph5.0 kmh 30.71 in1040.0 mb 0.00 in0.0 mm 0.00 in0.0 mm 0.00 in0.0 mm
12:28 AM 12.0°F-11.1°C 7.4°F-13.7°C 81% Calm Calm 3.1 mph5.0 kmh 30.71 in1040.0 mb 0.00 in0.0 mm 0.00 in0.0 mm 0.00 in0.0 mm
12:26 AM 12.0°F-11.1°C 7.4°F-13.7°C 81% Calm Calm 3.1 mph5.0 kmh 30.71 in1040.0 mb 0.00 in0.0 mm 0.00 in0.0 mm 0.00 in0.0 mm
12:24 AM 12.0°F-11.1°C 7.4°F-13.7°C 81% 1.6 mph WNW2.6 kmh WNW 3.1 mph5.0 kmh 30.71 in1040.0 mb 0.00 in0.0 mm 0.00 in0.0 mm 0.00 in0.0 mm
12:22 AM 12.2°F-11.0°C 7.6°F-13.6°C 81% Calm Calm 3.1 mph5.0 kmh 30.70 in1039.6 mb 0.00 in0.0 mm 0.00 in0.0 mm 0.00 in0.0 mm
12:20 AM 12.4°F-10.9°C 7.7°F-13.5°C 81% Calm Calm 3.1 mph5.0 kmh 30.70 in1039.6 mb 0.00 in0.0 mm 0.00 in0.0 mm 0.00 in0.0 mm
12:18 AM 12.6°F-10.8°C 7.9°F-13.4°C 81% 0.7 mph WNW1.1 kmh WNW 3.1 mph5.0 kmh 30.70 in1039.6 mb 0.00 in0.0 mm 0.00 in0.0 mm 0.00 in0.0 mm
12:16 AM 12.6°F-10.8°C 7.9°F-13.4°C 81% Calm Calm 3.1 mph5.0 kmh 30.70 in1039.6 mb 0.00 in0.0 mm 0.00 in0.0 mm 0.00 in0.0 mm
12:14 AM 12.7°F-10.7°C 8.1°F-13.3°C 81% 0.7 mph W1.1 kmh W 3.1 mph5.0 kmh 30.70 in1039.6 mb 0.00 in0.0 mm 0.00 in0.0 mm 0.00 in0.0 mm
12:12 AM 12.9°F-10.6°C 8.3°F-13.2°C 81% Calm Calm 3.1 mph5.0 kmh 30.70 in1039.6 mb 0.00 in0.0 mm 0.00 in0.0 mm 0.00 in0.0 mm
12:10 AM 13.1°F-10.5°C 8.4°F-13.1°C 81% Calm Calm 3.1 mph5.0 kmh 30.70 in1039.6 mb 0.00 in0.0 mm 0.00 in0.0 mm 0.00 in0.0 mm
12:08 AM 13.1°F-10.5°C 8.4°F-13.1°C 81% 0.7 mph WNW1.1 kmh WNW 3.1 mph5.0 kmh 30.70 in1039.6 mb 0.00 in0.0 mm 0.00 in0.0 mm 0.00 in0.0 mm
12:06 AM 13.1°F-10.5°C 8.7°F-12.9°C 82% 0.7 mph NW1.1 kmh NW 2.2 mph3.5 kmh 30.70 in1039.6 mb 0.00 in0.0 mm 0.00 in0.0 mm 0.00 in0.0 mm
12:04 AM 13.3°F-10.4°C 8.9°F-12.8°C 82% 0.7 mph NW1.1 kmh NW 2.2 mph3.5 kmh 30.70 in1039.6 mb 0.00 in0.0 mm 0.00 in0.0 mm 0.00 in0.0 mm
12:02 AM 13.3°F-10.4°C 8.9°F-12.8°C 82% Calm Calm 2.2 mph3.5 kmh 30.70 in1039.6 mb 0.00 in0.0 mm 0.00 in0.0 mm 0.00 in0.0 mm
12:00 AM 13.3°F-10.4°C 8.9°F-12.8°C 82% 0.7 mph W1.1 kmh W 3.1 mph5.0 kmh 30.70 in1039.6 mb 0.00 in0.0 mm 0.00 in0.0 mm 0.00 in0.0 mm